<?xml version='1.0' encoding='UTF-8'?><gpx version="1.1" creator="JPX - https://github.com/jenetics/jpx" xmlns="http://www.topografix.com/GPX/1/1"><trk><trkseg><trkpt lat="40.7010399" lon="17.3438629"><ele>427.8</ele><time>2026-04-03T16:31:32.464Z</time></trkpt><trkpt lat="40.7010966" lon="17.3437691"><ele>428.6</ele><time>2026-04-03T16:31:34.464Z</time></trkpt><trkpt lat="40.7011853" lon="17.3436517"><ele>429.40000000000003</ele><time>2026-04-03T16:31:36.464Z</time></trkpt><trkpt lat="40.7012601" lon="17.3435502"><ele>430.20000000000005</ele><time>2026-04-03T16:31:38.464Z</time></trkpt><trkpt lat="40.7012391" lon="17.3434557"><ele>431.0</ele><time>2026-04-03T16:31:45.464Z</time></trkpt><trkpt lat="40.7011851" lon="17.3433802"><ele>430.99999999999994</ele><time>2026-04-03T16:31:48.464Z</time></trkpt><trkpt lat="40.7011767" lon="17.3432955"><ele>431.0</ele><time>2026-04-03T16:31:51.465Z</time></trkpt><trkpt lat="40.7011959" lon="17.3432117"><ele>431.0</ele><time>2026-04-03T16:31:59.465Z</time></trkpt><trkpt lat="40.7012686" lon="17.3431404"><ele>431.0</ele><time>2026-04-03T16:32:03.465Z</time></trkpt><trkpt lat="40.7012884" lon="17.3430555"><ele>430.99999999999994</ele><time>2026-04-03T16:32:05.465Z</time></trkpt><trkpt lat="40.7012868" lon="17.3429511"><ele>431.0</ele><time>2026-04-03T16:32:07.463Z</time></trkpt><trkpt lat="40.7013004" lon="17.3428436"><ele>430.99999999999994</ele><time>2026-04-03T16:32:09.464Z</time></trkpt><trkpt lat="40.7013295" lon="17.3427363"><ele>431.0</ele><time>2026-04-03T16:32:11.465Z</time></trkpt><trkpt lat="40.7013741" lon="17.342617"><ele>431.0</ele><time>2026-04-03T16:32:13.465Z</time></trkpt><trkpt lat="40.7013933" lon="17.3425283"><ele>431.0</ele><time>2026-04-03T16:32:14.465Z</time></trkpt><trkpt lat="40.7014183" lon="17.3424437"><ele>430.99999999999994</ele><time>2026-04-03T16:32:15.464Z</time></trkpt><trkpt lat="40.701437" lon="17.3423604"><ele>431.0</ele><time>2026-04-03T16:32:16.463Z</time></trkpt><trkpt lat="40.7014719" lon="17.3422326"><ele>430.66666666666663</ele><time>2026-04-03T16:32:18.464Z</time></trkpt><trkpt lat="40.7014945" lon="17.3421109"><ele>430.3333333333333</ele><time>2026-04-03T16:32:20.465Z</time></trkpt><trkpt lat="40.7015389" lon="17.3420162"><ele>430.0</ele><time>2026-04-03T16:32:22.463Z</time></trkpt><trkpt lat="40.7015706" lon="17.3419189"><ele>429.66666666666663</ele><time>2026-04-03T16:32:24.464Z</time></trkpt><trkpt lat="40.701618" lon="17.3418219"><ele>429.3333333333333</ele><time>2026-04-03T16:32:26.465Z</time></trkpt><trkpt lat="40.7016448" lon="17.3417357"><ele>429.0</ele><time>2026-04-03T16:32:28.465Z</time></trkpt><trkpt lat="40.7016641" lon="17.3416479"><ele>429.0</ele><time>2026-04-03T16:32:31.463Z</time></trkpt><trkpt lat="40.7016747" lon="17.3415553"><ele>429.0</ele><time>2026-04-03T16:32:38.463Z</time></trkpt><trkpt lat="40.7016394" lon="17.3414736"><ele>429.0</ele><time>2026-04-03T16:32:41.463Z</time></trkpt><trkpt lat="40.7015351" lon="17.3414115"><ele>429.0</ele><time>2026-04-03T16:32:43.463Z</time></trkpt><trkpt lat="40.7014333" lon="17.341366"><ele>429.0</ele><time>2026-04-03T16:32:45.462Z</time></trkpt><trkpt lat="40.7013256" lon="17.3413152"><ele>428.8333333333333</ele><time>2026-04-03T16:32:47.463Z</time></trkpt><trkpt lat="40.7012652" lon="17.341288"><ele>428.66666666666663</ele><time>2026-04-03T16:32:48.464Z</time></trkpt><trkpt lat="40.7011705" lon="17.3412333"><ele>428.5</ele><time>2026-04-03T16:32:50.463Z</time></trkpt><trkpt lat="40.7010968" lon="17.3411967"><ele>428.3333333333333</ele><time>2026-04-03T16:32:52.462Z</time></trkpt><trkpt lat="40.7010364" lon="17.341168"><ele>428.16666666666663</ele><time>2026-04-03T16:32:53.464Z</time></trkpt><trkpt lat="40.7009119" lon="17.341103"><ele>428.0</ele><time>2026-04-03T16:32:55.464Z</time></trkpt><trkpt lat="40.7008425" lon="17.3410711"><ele>428.0</ele><time>2026-04-03T16:32:56.463Z</time></trkpt><trkpt lat="40.7007828" lon="17.3410406"><ele>427.99999999999994</ele><time>2026-04-03T16:32:57.463Z</time></trkpt><trkpt lat="40.7006782" lon="17.3409904"><ele>427.99999999999994</ele><time>2026-04-03T16:32:59.463Z</time></trkpt><trkpt lat="40.7005736" lon="17.3409388"><ele>428.0</ele><time>2026-04-03T16:33:01.462Z</time></trkpt><trkpt lat="40.700513" lon="17.3409069"><ele>428.0</ele><time>2026-04-03T16:33:02.464Z</time></trkpt><trkpt lat="40.7004099" lon="17.3408419"><ele>427.99999999999994</ele><time>2026-04-03T16:33:04.463Z</time></trkpt><trkpt lat="40.7003519" lon="17.340804"><ele>428.0</ele><time>2026-04-03T16:33:07.463Z</time></trkpt><trkpt lat="40.7003501" lon="17.340685"><ele>428.0</ele><time>2026-04-03T16:33:12.463Z</time></trkpt><trkpt lat="40.7003746" lon="17.3405948"><ele>428.0</ele><time>2026-04-03T16:33:14.464Z</time></trkpt><trkpt lat="40.7004094" lon="17.3404828"><ele>427.99999999999994</ele><time>2026-04-03T16:33:17.463Z</time></trkpt><trkpt lat="40.7004396" lon="17.3403717"><ele>428.0</ele><time>2026-04-03T16:33:20.463Z</time></trkpt><trkpt lat="40.7004601" lon="17.340279"><ele>427.4</ele><time>2026-04-03T16:33:22.464Z</time></trkpt><trkpt lat="40.700484" lon="17.3401728"><ele>426.79999999999995</ele><time>2026-04-03T16:33:24.464Z</time></trkpt><trkpt lat="40.7005117" lon="17.3400651"><ele>426.2</ele><time>2026-04-03T16:33:26.464Z</time></trkpt><trkpt lat="40.7005476" lon="17.3399401"><ele>425.6</ele><time>2026-04-03T16:33:28.464Z</time></trkpt><trkpt lat="40.7005852" lon="17.3398454"><ele>425.0</ele><time>2026-04-03T16:33:30.464Z</time></trkpt><trkpt lat="40.7006275" lon="17.3397153"><ele>424.3333333333333</ele><time>2026-04-03T16:33:32.462Z</time></trkpt><trkpt lat="40.7006646" lon="17.3395889"><ele>423.66666666666663</ele><time>2026-04-03T16:33:34.463Z</time></trkpt><trkpt lat="40.7006868" lon="17.3395028"><ele>423.0</ele><time>2026-04-03T16:33:35.462Z</time></trkpt><trkpt lat="40.7007065" lon="17.339417"><ele>422.33333333333337</ele><time>2026-04-03T16:33:36.463Z</time></trkpt><trkpt lat="40.7007254" lon="17.339337"><ele>421.6666666666667</ele><time>2026-04-03T16:33:37.464Z</time></trkpt><trkpt lat="40.7007438" lon="17.3392572"><ele>421.0</ele><time>2026-04-03T16:33:38.463Z</time></trkpt><trkpt lat="40.7007681" lon="17.3391116"><ele>421.00000000000006</ele><time>2026-04-03T16:33:40.464Z</time></trkpt><trkpt lat="40.7007974" lon="17.3390233"><ele>421.0</ele><time>2026-04-03T16:33:42.464Z</time></trkpt><trkpt lat="40.7008066" lon="17.3389154"><ele>421.0</ele><time>2026-04-03T16:34:37.464Z</time></trkpt><trkpt lat="40.7008272" lon="17.3388259"><ele>421.0</ele><time>2026-04-03T16:34:39.464Z</time></trkpt><trkpt lat="40.7008443" lon="17.3387369"><ele>421.00000000000006</ele><time>2026-04-03T16:34:41.463Z</time></trkpt><trkpt lat="40.7008103" lon="17.3386182"><ele>421.0</ele><time>2026-04-03T16:34:44.463Z</time></trkpt><trkpt lat="40.7007295" lon="17.3385721"><ele>421.28571428571433</ele><time>2026-04-03T16:34:46.464Z</time></trkpt><trkpt lat="40.7006691" lon="17.3385431"><ele>421.57142857142856</ele><time>2026-04-03T16:34:48.463Z</time></trkpt><trkpt lat="40.7006076" lon="17.3384982"><ele>421.8571428571429</ele><time>2026-04-03T16:34:51.462Z</time></trkpt><trkpt lat="40.7005212" lon="17.3384885"><ele>422.14285714285717</ele><time>2026-04-03T16:34:56.463Z</time></trkpt><trkpt lat="40.7004526" lon="17.3384695"><ele>422.42857142857144</ele><time>2026-04-03T16:34:59.463Z</time></trkpt><trkpt lat="40.7003916" lon="17.3384462"><ele>422.7142857142857</ele><time>2026-04-03T16:35:05.463Z</time></trkpt><trkpt lat="40.7003289" lon="17.3384141"><ele>423.0</ele><time>2026-04-03T16:35:09.462Z</time></trkpt><trkpt lat="40.7002661" lon="17.3383846"><ele>423.85714285714283</ele><time>2026-04-03T16:35:13.463Z</time></trkpt><trkpt lat="40.7001959" lon="17.3383656"><ele>424.7142857142857</ele><time>2026-04-03T16:35:17.464Z</time></trkpt><trkpt lat="40.7001227" lon="17.3383476"><ele>425.57142857142856</ele><time>2026-04-03T16:35:21.464Z</time></trkpt><trkpt lat="40.7000616" lon="17.3383237"><ele>426.42857142857144</ele><time>2026-04-03T16:35:24.463Z</time></trkpt><trkpt lat="40.6999945" lon="17.3382963"><ele>427.28571428571433</ele><time>2026-04-03T16:35:27.463Z</time></trkpt><trkpt lat="40.6999269" lon="17.3382624"><ele>428.14285714285717</ele><time>2026-04-03T16:35:30.463Z</time></trkpt><trkpt lat="40.69985" lon="17.3382263"><ele>429.0</ele><time>2026-04-03T16:35:32.463Z</time></trkpt><trkpt lat="40.6997827" lon="17.3382038"><ele>429.0</ele><time>2026-04-03T16:35:34.463Z</time></trkpt><trkpt lat="40.6997068" lon="17.3381884"><ele>429.0</ele><time>2026-04-03T16:35:40.463Z</time></trkpt><trkpt lat="40.6995875" lon="17.3381363"><ele>429.0</ele><time>2026-04-03T16:35:42.464Z</time></trkpt><trkpt lat="40.6995228" lon="17.3381107"><ele>429.0</ele><time>2026-04-03T16:35:43.463Z</time></trkpt><trkpt lat="40.6994531" lon="17.3380857"><ele>429.0</ele><time>2026-04-03T16:35:44.463Z</time></trkpt><trkpt lat="40.699388" lon="17.3380626"><ele>429.0</ele><time>2026-04-03T16:35:45.463Z</time></trkpt><trkpt lat="40.6992817" lon="17.3380373"><ele>428.6</ele><time>2026-04-03T16:35:47.462Z</time></trkpt><trkpt lat="40.6991913" lon="17.3379887"><ele>428.2</ele><time>2026-04-03T16:35:49.464Z</time></trkpt><trkpt lat="40.6990964" lon="17.3379506"><ele>427.80000000000007</ele><time>2026-04-03T16:35:51.463Z</time></trkpt><trkpt lat="40.6990024" lon="17.3379188"><ele>427.40000000000003</ele><time>2026-04-03T16:35:53.464Z</time></trkpt><trkpt lat="40.6989185" lon="17.3378776"><ele>427.0</ele><time>2026-04-03T16:35:55.464Z</time></trkpt><trkpt lat="40.6988359" lon="17.337839"><ele>427.00000000000006</ele><time>2026-04-03T16:35:57.463Z</time></trkpt><trkpt lat="40.6987617" lon="17.3378087"><ele>427.0</ele><time>2026-04-03T16:35:59.462Z</time></trkpt><trkpt lat="40.6986819" lon="17.3377701"><ele>427.0</ele><time>2026-04-03T16:36:01.461Z</time></trkpt><trkpt lat="40.6985938" lon="17.3377325"><ele>427.0</ele><time>2026-04-03T16:36:03.462Z</time></trkpt><trkpt lat="40.6985281" lon="17.337693"><ele>427.00000000000006</ele><time>2026-04-03T16:36:05.463Z</time></trkpt><trkpt lat="40.6984453" lon="17.3376629"><ele>427.0</ele><time>2026-04-03T16:36:10.461Z</time></trkpt><trkpt lat="40.6983484" lon="17.3376196"><ele>426.0</ele><time>2026-04-03T16:36:12.461Z</time></trkpt><trkpt lat="40.6982858" lon="17.337591"><ele>425.00000000000006</ele><time>2026-04-03T16:36:13.462Z</time></trkpt><trkpt lat="40.6982114" lon="17.3375566"><ele>424.0</ele><time>2026-04-03T16:36:14.462Z</time></trkpt><trkpt lat="40.698124" lon="17.3375207"><ele>423.0</ele><time>2026-04-03T16:36:15.462Z</time></trkpt><trkpt lat="40.6980181" lon="17.3374863"><ele>422.0</ele><time>2026-04-03T16:36:16.462Z</time></trkpt><trkpt lat="40.6979107" lon="17.3374359"><ele>422.0</ele><time>2026-04-03T16:36:17.463Z</time></trkpt><trkpt lat="40.697798" lon="17.337389"><ele>422.0</ele><time>2026-04-03T16:36:18.462Z</time></trkpt><trkpt lat="40.6976671" lon="17.3373426"><ele>422.0</ele><time>2026-04-03T16:36:19.462Z</time></trkpt><trkpt lat="40.6975352" lon="17.3372902"><ele>422.0</ele><time>2026-04-03T16:36:20.462Z</time></trkpt><trkpt lat="40.6973974" lon="17.3372344"><ele>421.0</ele><time>2026-04-03T16:36:21.462Z</time></trkpt><trkpt lat="40.6972646" lon="17.3371819"><ele>420.0</ele><time>2026-04-03T16:36:22.463Z</time></trkpt><trkpt lat="40.6971261" lon="17.3371255"><ele>419.0</ele><time>2026-04-03T16:36:23.462Z</time></trkpt><trkpt lat="40.6969873" lon="17.3370662"><ele>418.0</ele><time>2026-04-03T16:36:24.461Z</time></trkpt><trkpt lat="40.6968591" lon="17.3370141"><ele>418.0</ele><time>2026-04-03T16:36:25.462Z</time></trkpt><trkpt lat="40.696736" lon="17.3369627"><ele>418.0</ele><time>2026-04-03T16:36:26.463Z</time></trkpt><trkpt lat="40.6966068" lon="17.3369049"><ele>418.0</ele><time>2026-04-03T16:36:27.462Z</time></trkpt><trkpt lat="40.6964809" lon="17.3368531"><ele>418.0</ele><time>2026-04-03T16:36:28.462Z</time></trkpt><trkpt lat="40.6963553" lon="17.3367989"><ele>418.0</ele><time>2026-04-03T16:36:29.463Z</time></trkpt><trkpt lat="40.6962297" lon="17.3367481"><ele>418.0</ele><time>2026-04-03T16:36:30.463Z</time></trkpt><trkpt lat="40.6961051" lon="17.3366963"><ele>418.0</ele><time>2026-04-03T16:36:31.463Z</time></trkpt><trkpt lat="40.6959742" lon="17.3366436"><ele>418.0</ele><time>2026-04-03T16:36:32.462Z</time></trkpt><trkpt lat="40.6958502" lon="17.3365955"><ele>418.75</ele><time>2026-04-03T16:36:33.463Z</time></trkpt><trkpt lat="40.6957322" lon="17.3365488"><ele>419.5</ele><time>2026-04-03T16:36:34.463Z</time></trkpt><trkpt lat="40.6956055" lon="17.3364957"><ele>420.25</ele><time>2026-04-03T16:36:35.462Z</time></trkpt><trkpt lat="40.6954809" lon="17.336446"><ele>421.0</ele><time>2026-04-03T16:36:36.461Z</time></trkpt><trkpt lat="40.6953556" lon="17.3363958"><ele>420.5</ele><time>2026-04-03T16:36:37.462Z</time></trkpt><trkpt lat="40.6952261" lon="17.3363379"><ele>420.0</ele><time>2026-04-03T16:36:38.462Z</time></trkpt><trkpt lat="40.6950914" lon="17.3362784"><ele>419.5</ele><time>2026-04-03T16:36:39.462Z</time></trkpt><trkpt lat="40.6949507" lon="17.3362183"><ele>419.0</ele><time>2026-04-03T16:36:40.462Z</time></trkpt><trkpt lat="40.694812" lon="17.3361621"><ele>419.0</ele><time>2026-04-03T16:36:41.463Z</time></trkpt><trkpt lat="40.6946674" lon="17.3361029"><ele>419.0</ele><time>2026-04-03T16:36:42.462Z</time></trkpt><trkpt lat="40.6945184" lon="17.3360411"><ele>419.0</ele><time>2026-04-03T16:36:43.463Z</time></trkpt><trkpt lat="40.6943654" lon="17.33598"><ele>419.0</ele><time>2026-04-03T16:36:44.463Z</time></trkpt><trkpt lat="40.6942102" lon="17.3359125"><ele>419.0</ele><time>2026-04-03T16:36:45.463Z</time></trkpt><trkpt lat="40.6940527" lon="17.335851"><ele>419.0</ele><time>2026-04-03T16:36:46.461Z</time></trkpt><trkpt lat="40.6938971" lon="17.3357883"><ele>419.0</ele><time>2026-04-03T16:36:47.463Z</time></trkpt><trkpt lat="40.6937317" lon="17.3357235"><ele>419.0</ele><time>2026-04-03T16:36:48.461Z</time></trkpt><trkpt lat="40.6935635" lon="17.3356575"><ele>419.0</ele><time>2026-04-03T16:36:49.462Z</time></trkpt><trkpt lat="40.6934037" lon="17.3355932"><ele>417.0</ele><time>2026-04-03T16:36:50.462Z</time></trkpt><trkpt lat="40.6932303" lon="17.3355192"><ele>415.0</ele><time>2026-04-03T16:36:51.463Z</time></trkpt><trkpt lat="40.6930638" lon="17.3354513"><ele>413.0</ele><time>2026-04-03T16:36:52.461Z</time></trkpt><trkpt lat="40.6928964" lon="17.3353821"><ele>412.3333333333333</ele><time>2026-04-03T16:36:53.462Z</time></trkpt><trkpt lat="40.6927275" lon="17.3353138"><ele>411.66666666666663</ele><time>2026-04-03T16:36:54.462Z</time></trkpt><trkpt lat="40.6925583" lon="17.3352455"><ele>411.0</ele><time>2026-04-03T16:36:55.462Z</time></trkpt><trkpt lat="40.6923782" lon="17.3351739"><ele>411.0</ele><time>2026-04-03T16:36:56.462Z</time></trkpt><trkpt lat="40.6921942" lon="17.3350991"><ele>411.0</ele><time>2026-04-03T16:36:57.461Z</time></trkpt><trkpt lat="40.6920057" lon="17.3350219"><ele>411.0</ele><time>2026-04-03T16:36:58.462Z</time></trkpt><trkpt lat="40.691814" lon="17.3349426"><ele>411.33333333333337</ele><time>2026-04-03T16:36:59.462Z</time></trkpt><trkpt lat="40.6916172" lon="17.334863"><ele>411.6666666666667</ele><time>2026-04-03T16:37:00.463Z</time></trkpt><trkpt lat="40.6914263" lon="17.3347854"><ele>412.0</ele><time>2026-04-03T16:37:01.462Z</time></trkpt><trkpt lat="40.6912405" lon="17.3347087"><ele>411.6666666666667</ele><time>2026-04-03T16:37:02.463Z</time></trkpt><trkpt lat="40.6910616" lon="17.3346359"><ele>411.33333333333337</ele><time>2026-04-03T16:37:03.463Z</time></trkpt><trkpt lat="40.6908694" lon="17.3345596"><ele>411.0</ele><time>2026-04-03T16:37:04.463Z</time></trkpt><trkpt lat="40.6906886" lon="17.3344845"><ele>411.0</ele><time>2026-04-03T16:37:05.463Z</time></trkpt><trkpt lat="40.6905095" lon="17.3344125"><ele>411.0</ele><time>2026-04-03T16:37:06.463Z</time></trkpt><trkpt lat="40.6903249" lon="17.3343372"><ele>411.0</ele><time>2026-04-03T16:37:07.461Z</time></trkpt><trkpt lat="40.6901423" lon="17.3342601"><ele>411.33333333333337</ele><time>2026-04-03T16:37:08.463Z</time></trkpt><trkpt lat="40.6899585" lon="17.334182"><ele>411.6666666666667</ele><time>2026-04-03T16:37:09.462Z</time></trkpt><trkpt lat="40.6897754" lon="17.3341054"><ele>412.0</ele><time>2026-04-03T16:37:10.463Z</time></trkpt><trkpt lat="40.6895931" lon="17.3340315"><ele>413.6666666666667</ele><time>2026-04-03T16:37:11.462Z</time></trkpt><trkpt lat="40.6894009" lon="17.333953"><ele>415.33333333333337</ele><time>2026-04-03T16:37:12.461Z</time></trkpt><trkpt lat="40.6892164" lon="17.3338772"><ele>417.0</ele><time>2026-04-03T16:37:13.462Z</time></trkpt><trkpt lat="40.6890401" lon="17.3338059"><ele>417.0</ele><time>2026-04-03T16:37:14.462Z</time></trkpt><trkpt lat="40.6888688" lon="17.3337337"><ele>417.0</ele><time>2026-04-03T16:37:15.463Z</time></trkpt><trkpt lat="40.6887055" lon="17.3336663"><ele>417.0</ele><time>2026-04-03T16:37:16.462Z</time></trkpt><trkpt lat="40.6885431" lon="17.3336002"><ele>418.0</ele><time>2026-04-03T16:37:17.462Z</time></trkpt><trkpt lat="40.6883916" lon="17.3335385"><ele>419.0</ele><time>2026-04-03T16:37:18.461Z</time></trkpt><trkpt lat="40.6882384" lon="17.3334766"><ele>420.0</ele><time>2026-04-03T16:37:19.462Z</time></trkpt><trkpt lat="40.6880799" lon="17.3334115"><ele>420.0</ele><time>2026-04-03T16:37:20.463Z</time></trkpt><trkpt lat="40.6879293" lon="17.3333497"><ele>420.0</ele><time>2026-04-03T16:37:21.463Z</time></trkpt><trkpt lat="40.6877849" lon="17.3332899"><ele>420.0</ele><time>2026-04-03T16:37:22.462Z</time></trkpt><trkpt lat="40.6876299" lon="17.3332258"><ele>420.66666666666663</ele><time>2026-04-03T16:37:23.462Z</time></trkpt><trkpt lat="40.6874846" lon="17.3331657"><ele>421.3333333333333</ele><time>2026-04-03T16:37:24.463Z</time></trkpt><trkpt lat="40.6873408" lon="17.3331078"><ele>422.0</ele><time>2026-04-03T16:37:25.461Z</time></trkpt><trkpt lat="40.6871944" lon="17.3330492"><ele>422.3333333333333</ele><time>2026-04-03T16:37:26.462Z</time></trkpt><trkpt lat="40.6870496" lon="17.332989"><ele>422.66666666666663</ele><time>2026-04-03T16:37:27.462Z</time></trkpt><trkpt lat="40.6868941" lon="17.3329246"><ele>423.0</ele><time>2026-04-03T16:37:28.462Z</time></trkpt><trkpt lat="40.6867468" lon="17.3328633"><ele>422.0</ele><time>2026-04-03T16:37:29.463Z</time></trkpt><trkpt lat="40.6865993" lon="17.3328012"><ele>421.0</ele><time>2026-04-03T16:37:30.463Z</time></trkpt><trkpt lat="40.686451" lon="17.3327406"><ele>420.0</ele><time>2026-04-03T16:37:31.461Z</time></trkpt><trkpt lat="40.6863008" lon="17.3326774"><ele>420.0</ele><time>2026-04-03T16:37:32.463Z</time></trkpt><trkpt lat="40.6861498" lon="17.332617"><ele>420.0</ele><time>2026-04-03T16:37:33.463Z</time></trkpt><trkpt lat="40.6860068" lon="17.3325591"><ele>420.0</ele><time>2026-04-03T16:37:34.462Z</time></trkpt><trkpt lat="40.6858638" lon="17.3325012"><ele>418.66666666666663</ele><time>2026-04-03T16:37:35.462Z</time></trkpt><trkpt lat="40.6857168" lon="17.3324399"><ele>417.3333333333333</ele><time>2026-04-03T16:37:36.462Z</time></trkpt><trkpt lat="40.6855726" lon="17.3323801"><ele>416.0</ele><time>2026-04-03T16:37:37.461Z</time></trkpt><trkpt lat="40.6854288" lon="17.3323197"><ele>416.0</ele><time>2026-04-03T16:37:38.462Z</time></trkpt><trkpt lat="40.685282" lon="17.3322608"><ele>416.0</ele><time>2026-04-03T16:37:39.462Z</time></trkpt><trkpt lat="40.6851346" lon="17.3322041"><ele>416.0</ele><time>2026-04-03T16:37:40.463Z</time></trkpt><trkpt lat="40.6849884" lon="17.3321483"><ele>416.3333333333333</ele><time>2026-04-03T16:37:41.463Z</time></trkpt><trkpt lat="40.6848404" lon="17.3320896"><ele>416.66666666666663</ele><time>2026-04-03T16:37:42.462Z</time></trkpt><trkpt lat="40.6846962" lon="17.3320271"><ele>417.0</ele><time>2026-04-03T16:37:43.461Z</time></trkpt><trkpt lat="40.6845392" lon="17.3319596"><ele>418.0</ele><time>2026-04-03T16:37:44.462Z</time></trkpt><trkpt lat="40.6843927" lon="17.3318985"><ele>419.0</ele><time>2026-04-03T16:37:45.462Z</time></trkpt><trkpt lat="40.6842548" lon="17.3318419"><ele>420.0</ele><time>2026-04-03T16:37:46.462Z</time></trkpt><trkpt lat="40.6841091" lon="17.3317825"><ele>420.0</ele><time>2026-04-03T16:37:47.462Z</time></trkpt><trkpt lat="40.6839702" lon="17.3317255"><ele>420.0</ele><time>2026-04-03T16:37:48.461Z</time></trkpt><trkpt lat="40.6838341" lon="17.331669"><ele>420.0</ele><time>2026-04-03T16:37:49.462Z</time></trkpt><trkpt lat="40.6837049" lon="17.3316151"><ele>420.0</ele><time>2026-04-03T16:37:50.462Z</time></trkpt><trkpt lat="40.6835772" lon="17.3315638"><ele>419.5</ele><time>2026-04-03T16:37:51.462Z</time></trkpt><trkpt lat="40.6834468" lon="17.3315099"><ele>419.0</ele><time>2026-04-03T16:37:52.462Z</time></trkpt><trkpt lat="40.6833235" lon="17.3314592"><ele>418.5</ele><time>2026-04-03T16:37:53.463Z</time></trkpt><trkpt lat="40.6832025" lon="17.33141"><ele>418.0</ele><time>2026-04-03T16:37:54.463Z</time></trkpt><trkpt lat="40.6830855" lon="17.3313618"><ele>418.0</ele><time>2026-04-03T16:37:55.461Z</time></trkpt><trkpt lat="40.6829716" lon="17.3313148"><ele>418.0</ele><time>2026-04-03T16:37:56.462Z</time></trkpt><trkpt lat="40.6828603" lon="17.3312688"><ele>418.0</ele><time>2026-04-03T16:37:57.462Z</time></trkpt><trkpt lat="40.6827526" lon="17.3312248"><ele>418.0</ele><time>2026-04-03T16:37:58.462Z</time></trkpt><trkpt lat="40.6826463" lon="17.331181"><ele>418.25</ele><time>2026-04-03T16:37:59.462Z</time></trkpt><trkpt lat="40.6825318" lon="17.3311319"><ele>418.5</ele><time>2026-04-03T16:38:00.462Z</time></trkpt><trkpt lat="40.6824177" lon="17.331085"><ele>418.75</ele><time>2026-04-03T16:38:01.461Z</time></trkpt><trkpt lat="40.6823082" lon="17.3310396"><ele>419.0</ele><time>2026-04-03T16:38:02.461Z</time></trkpt><trkpt lat="40.6821895" lon="17.3309919"><ele>419.0</ele><time>2026-04-03T16:38:03.463Z</time></trkpt><trkpt lat="40.6820711" lon="17.3309429"><ele>419.0</ele><time>2026-04-03T16:38:04.462Z</time></trkpt><trkpt lat="40.6819474" lon="17.3308916"><ele>419.0</ele><time>2026-04-03T16:38:05.461Z</time></trkpt><trkpt lat="40.6818229" lon="17.330841"><ele>419.0</ele><time>2026-04-03T16:38:06.462Z</time></trkpt><trkpt lat="40.6816929" lon="17.3307877"><ele>419.0</ele><time>2026-04-03T16:38:07.463Z</time></trkpt><trkpt lat="40.6815561" lon="17.3307323"><ele>419.0</ele><time>2026-04-03T16:38:08.461Z</time></trkpt><trkpt lat="40.6814189" lon="17.330677"><ele>419.0</ele><time>2026-04-03T16:38:09.462Z</time></trkpt><trkpt lat="40.6812773" lon="17.3306182"><ele>419.0</ele><time>2026-04-03T16:38:10.462Z</time></trkpt><trkpt lat="40.6811347" lon="17.3305577"><ele>419.5</ele><time>2026-04-03T16:38:11.462Z</time></trkpt><trkpt lat="40.6809934" lon="17.3304986"><ele>420.0</ele><time>2026-04-03T16:38:12.463Z</time></trkpt><trkpt lat="40.6808542" lon="17.3304403"><ele>420.5</ele><time>2026-04-03T16:38:13.462Z</time></trkpt><trkpt lat="40.6807154" lon="17.3303828"><ele>421.0</ele><time>2026-04-03T16:38:14.462Z</time></trkpt><trkpt lat="40.6805822" lon="17.3303294"><ele>421.0</ele><time>2026-04-03T16:38:15.461Z</time></trkpt><trkpt lat="40.680443" lon="17.3302747"><ele>421.0</ele><time>2026-04-03T16:38:16.461Z</time></trkpt><trkpt lat="40.680313" lon="17.3302224"><ele>421.0</ele><time>2026-04-03T16:38:17.461Z</time></trkpt><trkpt lat="40.6801878" lon="17.3301698"><ele>421.0</ele><time>2026-04-03T16:38:18.463Z</time></trkpt><trkpt lat="40.6800545" lon="17.3301137"><ele>421.75</ele><time>2026-04-03T16:38:19.462Z</time></trkpt><trkpt lat="40.6799284" lon="17.3300608"><ele>422.5</ele><time>2026-04-03T16:38:20.463Z</time></trkpt><trkpt lat="40.6798049" lon="17.3300105"><ele>423.25</ele><time>2026-04-03T16:38:21.463Z</time></trkpt><trkpt lat="40.6796808" lon="17.3299592"><ele>424.0</ele><time>2026-04-03T16:38:22.463Z</time></trkpt><trkpt lat="40.6795633" lon="17.3299126"><ele>424.0</ele><time>2026-04-03T16:38:23.463Z</time></trkpt><trkpt lat="40.6794435" lon="17.3298612"><ele>424.0</ele><time>2026-04-03T16:38:24.463Z</time></trkpt><trkpt lat="40.679328" lon="17.329812"><ele>424.0</ele><time>2026-04-03T16:38:25.461Z</time></trkpt><trkpt lat="40.6792123" lon="17.329766"><ele>424.0</ele><time>2026-04-03T16:38:26.462Z</time></trkpt><trkpt lat="40.6790984" lon="17.3297196"><ele>424.0</ele><time>2026-04-03T16:38:27.462Z</time></trkpt><trkpt lat="40.678988" lon="17.3296741"><ele>424.0</ele><time>2026-04-03T16:38:28.462Z</time></trkpt><trkpt lat="40.6788859" lon="17.3296358"><ele>424.0</ele><time>2026-04-03T16:38:29.462Z</time></trkpt><trkpt lat="40.6787832" lon="17.3295944"><ele>424.0</ele><time>2026-04-03T16:38:30.462Z</time></trkpt><trkpt lat="40.6786806" lon="17.329552"><ele>424.0</ele><time>2026-04-03T16:38:31.463Z</time></trkpt><trkpt lat="40.6785675" lon="17.329505"><ele>424.0</ele><time>2026-04-03T16:38:32.463Z</time></trkpt><trkpt lat="40.6784536" lon="17.3294584"><ele>424.0</ele><time>2026-04-03T16:38:33.462Z</time></trkpt><trkpt lat="40.6783371" lon="17.3294122"><ele>424.0</ele><time>2026-04-03T16:38:34.462Z</time></trkpt><trkpt lat="40.6782115" lon="17.3293625"><ele>424.0</ele><time>2026-04-03T16:38:35.462Z</time></trkpt><trkpt lat="40.6780855" lon="17.3293125"><ele>424.0</ele><time>2026-04-03T16:38:36.462Z</time></trkpt><trkpt lat="40.6779537" lon="17.329255"><ele>424.0</ele><time>2026-04-03T16:38:37.462Z</time></trkpt><trkpt lat="40.6778224" lon="17.3291992"><ele>424.0</ele><time>2026-04-03T16:38:38.462Z</time></trkpt><trkpt lat="40.6776901" lon="17.329142"><ele>424.0</ele><time>2026-04-03T16:38:39.462Z</time></trkpt><trkpt lat="40.6775472" lon="17.329082"><ele>424.25</ele><time>2026-04-03T16:38:40.462Z</time></trkpt><trkpt lat="40.6774044" lon="17.3290225"><ele>424.5</ele><time>2026-04-03T16:38:41.461Z</time></trkpt><trkpt lat="40.6772644" lon="17.3289667"><ele>424.75</ele><time>2026-04-03T16:38:42.463Z</time></trkpt><trkpt lat="40.6771209" lon="17.3289077"><ele>425.0</ele><time>2026-04-03T16:38:43.462Z</time></trkpt><trkpt lat="40.6769747" lon="17.3288489"><ele>423.66666666666663</ele><time>2026-04-03T16:38:44.462Z</time></trkpt><trkpt lat="40.6768275" lon="17.3287904"><ele>422.33333333333337</ele><time>2026-04-03T16:38:45.462Z</time></trkpt><trkpt lat="40.6766848" lon="17.3287348"><ele>421.0</ele><time>2026-04-03T16:38:46.462Z</time></trkpt><trkpt lat="40.6765364" lon="17.3286753"><ele>421.0</ele><time>2026-04-03T16:38:47.461Z</time></trkpt><trkpt lat="40.6763787" lon="17.3286118"><ele>421.0</ele><time>2026-04-03T16:38:48.462Z</time></trkpt><trkpt lat="40.6762241" lon="17.328546"><ele>421.0</ele><time>2026-04-03T16:38:49.463Z</time></trkpt><trkpt lat="40.6760684" lon="17.3284828"><ele>422.0</ele><time>2026-04-03T16:38:50.463Z</time></trkpt><trkpt lat="40.6759131" lon="17.328419"><ele>423.0</ele><time>2026-04-03T16:38:51.462Z</time></trkpt><trkpt lat="40.6757587" lon="17.3283561"><ele>424.0</ele><time>2026-04-03T16:38:52.461Z</time></trkpt><trkpt lat="40.6756015" lon="17.3282898"><ele>424.0</ele><time>2026-04-03T16:38:53.461Z</time></trkpt><trkpt lat="40.6754473" lon="17.328227"><ele>424.0</ele><time>2026-04-03T16:38:54.463Z</time></trkpt><trkpt lat="40.6753006" lon="17.3281667"><ele>424.0</ele><time>2026-04-03T16:38:55.462Z</time></trkpt><trkpt lat="40.6751458" lon="17.328102"><ele>425.6666666666667</ele><time>2026-04-03T16:38:56.462Z</time></trkpt><trkpt lat="40.6750002" lon="17.3280414"><ele>427.33333333333337</ele><time>2026-04-03T16:38:57.462Z</time></trkpt><trkpt lat="40.6748616" lon="17.327983"><ele>429.0</ele><time>2026-04-03T16:38:58.462Z</time></trkpt><trkpt lat="40.6747118" lon="17.3279217"><ele>429.0</ele><time>2026-04-03T16:38:59.463Z</time></trkpt><trkpt lat="40.6745669" lon="17.3278633"><ele>429.0</ele><time>2026-04-03T16:39:00.463Z</time></trkpt><trkpt lat="40.6744216" lon="17.327803"><ele>429.0</ele><time>2026-04-03T16:39:01.462Z</time></trkpt><trkpt lat="40.6742795" lon="17.3277433"><ele>429.0</ele><time>2026-04-03T16:39:02.462Z</time></trkpt><trkpt lat="40.674138" lon="17.3276872"><ele>429.0</ele><time>2026-04-03T16:39:03.463Z</time></trkpt><trkpt lat="40.6739889" lon="17.3276283"><ele>429.0</ele><time>2026-04-03T16:39:04.462Z</time></trkpt><trkpt lat="40.6738391" lon="17.3275682"><ele>429.0</ele><time>2026-04-03T16:39:05.463Z</time></trkpt><trkpt lat="40.673684" lon="17.3275071"><ele>429.0</ele><time>2026-04-03T16:39:06.462Z</time></trkpt><trkpt lat="40.6735242" lon="17.3274431"><ele>429.0</ele><time>2026-04-03T16:39:07.461Z</time></trkpt><trkpt lat="40.6733649" lon="17.3273767"><ele>429.0</ele><time>2026-04-03T16:39:08.461Z</time></trkpt><trkpt lat="40.6732062" lon="17.327312"><ele>429.0</ele><time>2026-04-03T16:39:09.462Z</time></trkpt><trkpt lat="40.6730508" lon="17.3272468"><ele>429.0</ele><time>2026-04-03T16:39:10.462Z</time></trkpt><trkpt lat="40.672903" lon="17.3271858"><ele>428.0</ele><time>2026-04-03T16:39:11.461Z</time></trkpt><trkpt lat="40.6727437" lon="17.3271212"><ele>427.0</ele><time>2026-04-03T16:39:12.463Z</time></trkpt><trkpt lat="40.672587" lon="17.3270584"><ele>426.0</ele><time>2026-04-03T16:39:13.462Z</time></trkpt><trkpt lat="40.6724347" lon="17.3269926"><ele>426.0</ele><time>2026-04-03T16:39:14.462Z</time></trkpt><trkpt lat="40.6722758" lon="17.3269285"><ele>426.0</ele><time>2026-04-03T16:39:15.462Z</time></trkpt><trkpt lat="40.6721203" lon="17.3268639"><ele>426.0</ele><time>2026-04-03T16:39:16.462Z</time></trkpt><trkpt lat="40.6719664" lon="17.3267993"><ele>425.66666666666663</ele><time>2026-04-03T16:39:17.461Z</time></trkpt><trkpt lat="40.671814" lon="17.3267378"><ele>425.3333333333333</ele><time>2026-04-03T16:39:18.46Z</time></trkpt><trkpt lat="40.6716581" lon="17.3266734"><ele>425.0</ele><time>2026-04-03T16:39:19.462Z</time></trkpt><trkpt lat="40.6714973" lon="17.326609"><ele>425.0</ele><time>2026-04-03T16:39:20.462Z</time></trkpt><trkpt lat="40.6713402" lon="17.3265451"><ele>425.0</ele><time>2026-04-03T16:39:21.461Z</time></trkpt><trkpt lat="40.6711824" lon="17.3264815"><ele>425.0</ele><time>2026-04-03T16:39:22.461Z</time></trkpt><trkpt lat="40.6710239" lon="17.3264155"><ele>424.66666666666663</ele><time>2026-04-03T16:39:23.462Z</time></trkpt><trkpt lat="40.6708643" lon="17.3263477"><ele>424.33333333333337</ele><time>2026-04-03T16:39:24.461Z</time></trkpt><trkpt lat="40.6707078" lon="17.3262817"><ele>424.0</ele><time>2026-04-03T16:39:25.462Z</time></trkpt><trkpt lat="40.6705481" lon="17.3262142"><ele>424.0</ele><time>2026-04-03T16:39:26.461Z</time></trkpt><trkpt lat="40.6703907" lon="17.3261496"><ele>424.0</ele><time>2026-04-03T16:39:27.462Z</time></trkpt><trkpt lat="40.6702149" lon="17.3260772"><ele>424.0</ele><time>2026-04-03T16:39:28.461Z</time></trkpt><trkpt lat="40.6700417" lon="17.3260067"><ele>424.0</ele><time>2026-04-03T16:39:29.46Z</time></trkpt><trkpt lat="40.6698758" lon="17.3259371"><ele>424.0</ele><time>2026-04-03T16:39:30.461Z</time></trkpt><trkpt lat="40.6697" lon="17.325862"><ele>424.0</ele><time>2026-04-03T16:39:31.46Z</time></trkpt><trkpt lat="40.6695288" lon="17.3257931"><ele>424.0</ele><time>2026-04-03T16:39:32.462Z</time></trkpt><trkpt lat="40.6693589" lon="17.325722"><ele>424.0</ele><time>2026-04-03T16:39:33.461Z</time></trkpt><trkpt lat="40.6691887" lon="17.3256533"><ele>424.0</ele><time>2026-04-03T16:39:34.46Z</time></trkpt><trkpt lat="40.6690255" lon="17.3255865"><ele>424.33333333333337</ele><time>2026-04-03T16:39:35.461Z</time></trkpt><trkpt lat="40.668855" lon="17.3255134"><ele>424.66666666666663</ele><time>2026-04-03T16:39:36.462Z</time></trkpt><trkpt lat="40.6686914" lon="17.3254416"><ele>425.0</ele><time>2026-04-03T16:39:37.462Z</time></trkpt><trkpt lat="40.6685327" lon="17.325374"><ele>425.0</ele><time>2026-04-03T16:39:38.46Z</time></trkpt><trkpt lat="40.6683757" lon="17.3253071"><ele>425.0</ele><time>2026-04-03T16:39:39.462Z</time></trkpt><trkpt lat="40.6682224" lon="17.3252448"><ele>425.0</ele><time>2026-04-03T16:39:40.462Z</time></trkpt><trkpt lat="40.6680707" lon="17.325182"><ele>425.0</ele><time>2026-04-03T16:39:41.461Z</time></trkpt><trkpt lat="40.6679223" lon="17.3251194"><ele>425.0</ele><time>2026-04-03T16:39:42.461Z</time></trkpt><trkpt lat="40.6677694" lon="17.3250559"><ele>425.0</ele><time>2026-04-03T16:39:43.462Z</time></trkpt><trkpt lat="40.6676096" lon="17.3249893"><ele>424.0</ele><time>2026-04-03T16:39:44.461Z</time></trkpt><trkpt lat="40.6674603" lon="17.3249289"><ele>423.0</ele><time>2026-04-03T16:39:45.461Z</time></trkpt><trkpt lat="40.6673122" lon="17.3248672"><ele>422.0</ele><time>2026-04-03T16:39:46.462Z</time></trkpt><trkpt lat="40.6671572" lon="17.324802"><ele>422.0</ele><time>2026-04-03T16:39:47.462Z</time></trkpt><trkpt lat="40.6670102" lon="17.3247379"><ele>422.0</ele><time>2026-04-03T16:39:48.46Z</time></trkpt><trkpt lat="40.6668652" lon="17.3246765"><ele>422.0</ele><time>2026-04-03T16:39:49.462Z</time></trkpt><trkpt lat="40.6667218" lon="17.324616"><ele>423.3333333333333</ele><time>2026-04-03T16:39:50.461Z</time></trkpt><trkpt lat="40.6665796" lon="17.3245576"><ele>424.66666666666663</ele><time>2026-04-03T16:39:51.46Z</time></trkpt><trkpt lat="40.6664246" lon="17.3244929"><ele>426.0</ele><time>2026-04-03T16:39:52.462Z</time></trkpt><trkpt lat="40.6662704" lon="17.3244274"><ele>426.0</ele><time>2026-04-03T16:39:53.462Z</time></trkpt><trkpt lat="40.6661124" lon="17.324363"><ele>426.0</ele><time>2026-04-03T16:39:54.46Z</time></trkpt><trkpt lat="40.6659541" lon="17.3242977"><ele>426.0</ele><time>2026-04-03T16:39:55.461Z</time></trkpt><trkpt lat="40.6658018" lon="17.3242384"><ele>425.66666666666663</ele><time>2026-04-03T16:39:56.461Z</time></trkpt><trkpt lat="40.6656502" lon="17.3241758"><ele>425.3333333333333</ele><time>2026-04-03T16:39:57.462Z</time></trkpt><trkpt lat="40.66551" lon="17.3241178"><ele>425.0</ele><time>2026-04-03T16:39:58.462Z</time></trkpt><trkpt lat="40.6653628" lon="17.3240581"><ele>425.66666666666663</ele><time>2026-04-03T16:39:59.46Z</time></trkpt><trkpt lat="40.665211" lon="17.323996"><ele>426.33333333333337</ele><time>2026-04-03T16:40:00.462Z</time></trkpt><trkpt lat="40.6650646" lon="17.3239369"><ele>427.0</ele><time>2026-04-03T16:40:01.461Z</time></trkpt><trkpt lat="40.6649216" lon="17.323877"><ele>427.6666666666667</ele><time>2026-04-03T16:40:02.462Z</time></trkpt><trkpt lat="40.6647694" lon="17.3238136"><ele>428.33333333333337</ele><time>2026-04-03T16:40:03.46Z</time></trkpt><trkpt lat="40.6646238" lon="17.3237533"><ele>429.0</ele><time>2026-04-03T16:40:04.462Z</time></trkpt><trkpt lat="40.6644733" lon="17.3236921"><ele>428.66666666666663</ele><time>2026-04-03T16:40:05.462Z</time></trkpt><trkpt lat="40.664322" lon="17.3236306"><ele>428.3333333333333</ele><time>2026-04-03T16:40:06.461Z</time></trkpt><trkpt lat="40.6641736" lon="17.3235704"><ele>428.0</ele><time>2026-04-03T16:40:07.461Z</time></trkpt><trkpt lat="40.6640115" lon="17.3235023"><ele>428.0</ele><time>2026-04-03T16:40:08.461Z</time></trkpt><trkpt lat="40.6638536" lon="17.3234387"><ele>428.0</ele><time>2026-04-03T16:40:09.462Z</time></trkpt><trkpt lat="40.6636971" lon="17.3233717"><ele>428.0</ele><time>2026-04-03T16:40:10.462Z</time></trkpt><trkpt lat="40.6635299" lon="17.3233012"><ele>428.3333333333333</ele><time>2026-04-03T16:40:11.461Z</time></trkpt><trkpt lat="40.6633672" lon="17.323232"><ele>428.66666666666663</ele><time>2026-04-03T16:40:12.462Z</time></trkpt><trkpt lat="40.6632041" lon="17.3231633"><ele>429.0</ele><time>2026-04-03T16:40:13.461Z</time></trkpt><trkpt lat="40.6630492" lon="17.3230994"><ele>430.33333333333337</ele><time>2026-04-03T16:40:14.46Z</time></trkpt><trkpt lat="40.66289" lon="17.3230345"><ele>431.6666666666667</ele><time>2026-04-03T16:40:15.462Z</time></trkpt><trkpt lat="40.6627265" lon="17.322967"><ele>433.0</ele><time>2026-04-03T16:40:16.461Z</time></trkpt><trkpt lat="40.6625689" lon="17.3229017"><ele>433.0</ele><time>2026-04-03T16:40:17.461Z</time></trkpt><trkpt lat="40.6624111" lon="17.3228348"><ele>433.0</ele><time>2026-04-03T16:40:18.461Z</time></trkpt><trkpt lat="40.6622507" lon="17.3227685"><ele>433.0</ele><time>2026-04-03T16:40:19.462Z</time></trkpt><trkpt lat="40.6620898" lon="17.3227002"><ele>432.33333333333337</ele><time>2026-04-03T16:40:20.462Z</time></trkpt><trkpt lat="40.6619278" lon="17.3226309"><ele>431.66666666666663</ele><time>2026-04-03T16:40:21.461Z</time></trkpt><trkpt lat="40.6617678" lon="17.3225647"><ele>431.0</ele><time>2026-04-03T16:40:22.462Z</time></trkpt><trkpt lat="40.6616157" lon="17.3225047"><ele>431.0</ele><time>2026-04-03T16:40:23.461Z</time></trkpt><trkpt lat="40.6614552" lon="17.3224399"><ele>431.0</ele><time>2026-04-03T16:40:24.462Z</time></trkpt><trkpt lat="40.6613027" lon="17.3223785"><ele>431.0</ele><time>2026-04-03T16:40:25.461Z</time></trkpt><trkpt lat="40.6611544" lon="17.3223145"><ele>430.66666666666663</ele><time>2026-04-03T16:40:26.46Z</time></trkpt><trkpt lat="40.6609972" lon="17.3222492"><ele>430.33333333333337</ele><time>2026-04-03T16:40:27.462Z</time></trkpt><trkpt lat="40.6608487" lon="17.3221894"><ele>430.0</ele><time>2026-04-03T16:40:28.461Z</time></trkpt><trkpt lat="40.6607037" lon="17.3221317"><ele>429.5</ele><time>2026-04-03T16:40:29.461Z</time></trkpt><trkpt lat="40.6605651" lon="17.3220757"><ele>429.0</ele><time>2026-04-03T16:40:30.461Z</time></trkpt><trkpt lat="40.6604256" lon="17.3220191"><ele>428.5</ele><time>2026-04-03T16:40:31.462Z</time></trkpt><trkpt lat="40.6602866" lon="17.3219628"><ele>428.0</ele><time>2026-04-03T16:40:32.461Z</time></trkpt><trkpt lat="40.6601574" lon="17.3219101"><ele>427.75</ele><time>2026-04-03T16:40:33.461Z</time></trkpt><trkpt lat="40.6600273" lon="17.3218549"><ele>427.5</ele><time>2026-04-03T16:40:34.462Z</time></trkpt><trkpt lat="40.6599031" lon="17.3218032"><ele>427.25</ele><time>2026-04-03T16:40:35.46Z</time></trkpt><trkpt lat="40.6597734" lon="17.3217499"><ele>427.0</ele><time>2026-04-03T16:40:36.461Z</time></trkpt><trkpt lat="40.6596525" lon="17.3217021"><ele>427.0</ele><time>2026-04-03T16:40:37.46Z</time></trkpt><trkpt lat="40.6595275" lon="17.3216489"><ele>427.0</ele><time>2026-04-03T16:40:38.462Z</time></trkpt><trkpt lat="40.6594097" lon="17.3216012"><ele>427.0</ele><time>2026-04-03T16:40:39.46Z</time></trkpt><trkpt lat="40.6592873" lon="17.321552"><ele>427.0</ele><time>2026-04-03T16:40:40.461Z</time></trkpt><trkpt lat="40.6591726" lon="17.3215025"><ele>427.20000000000005</ele><time>2026-04-03T16:40:41.461Z</time></trkpt><trkpt lat="40.6590645" lon="17.3214599"><ele>427.40000000000003</ele><time>2026-04-03T16:40:42.46Z</time></trkpt><trkpt lat="40.6589595" lon="17.3214187"><ele>427.59999999999997</ele><time>2026-04-03T16:40:43.461Z</time></trkpt><trkpt lat="40.6588686" lon="17.3213814"><ele>427.79999999999995</ele><time>2026-04-03T16:40:44.461Z</time></trkpt><trkpt lat="40.6587923" lon="17.3213473"><ele>428.0</ele><time>2026-04-03T16:40:45.461Z</time></trkpt><trkpt lat="40.6587255" lon="17.3213139"><ele>427.8333333333333</ele><time>2026-04-03T16:40:46.462Z</time></trkpt><trkpt lat="40.6586685" lon="17.3212722"><ele>427.66666666666663</ele><time>2026-04-03T16:40:47.461Z</time></trkpt><trkpt lat="40.6586203" lon="17.3212106"><ele>427.5</ele><time>2026-04-03T16:40:48.461Z</time></trkpt><trkpt lat="40.6585959" lon="17.3210733"><ele>427.33333333333337</ele><time>2026-04-03T16:40:50.46Z</time></trkpt><trkpt lat="40.6586634" lon="17.3209666"><ele>427.1666666666667</ele><time>2026-04-03T16:40:52.461Z</time></trkpt><trkpt lat="40.6587561" lon="17.3209311"><ele>427.0</ele><time>2026-04-03T16:40:54.461Z</time></trkpt><trkpt lat="40.6588189" lon="17.3208968"><ele>426.83333333333337</ele><time>2026-04-03T16:40:57.462Z</time></trkpt><trkpt lat="40.6588634" lon="17.320827"><ele>426.6666666666667</ele><time>2026-04-03T16:41:02.462Z</time></trkpt><trkpt lat="40.6588807" lon="17.3207228"><ele>426.5</ele><time>2026-04-03T16:41:04.462Z</time></trkpt><trkpt lat="40.6588987" lon="17.3206223"><ele>426.33333333333337</ele><time>2026-04-03T16:41:06.461Z</time></trkpt><trkpt lat="40.6588996" lon="17.3205088"><ele>426.1666666666667</ele><time>2026-04-03T16:41:08.462Z</time></trkpt><trkpt lat="40.6588764" lon="17.3204128"><ele>426.0</ele><time>2026-04-03T16:41:09.461Z</time></trkpt><trkpt lat="40.6588543" lon="17.3203197"><ele>426.0</ele><time>2026-04-03T16:41:10.462Z</time></trkpt><trkpt lat="40.658829" lon="17.3202077"><ele>426.0</ele><time>2026-04-03T16:41:11.46Z</time></trkpt><trkpt lat="40.6588014" lon="17.3200818"><ele>426.0</ele><time>2026-04-03T16:41:12.462Z</time></trkpt><trkpt lat="40.6587731" lon="17.3199499"><ele>426.0</ele><time>2026-04-03T16:41:13.461Z</time></trkpt><trkpt lat="40.6587457" lon="17.3198126"><ele>426.0</ele><time>2026-04-03T16:41:14.462Z</time></trkpt><trkpt lat="40.6587152" lon="17.3196655"><ele>426.75</ele><time>2026-04-03T16:41:15.461Z</time></trkpt><trkpt lat="40.6586857" lon="17.3195194"><ele>427.5</ele><time>2026-04-03T16:41:16.462Z</time></trkpt><trkpt lat="40.6586541" lon="17.3193733"><ele>428.25</ele><time>2026-04-03T16:41:17.461Z</time></trkpt><trkpt lat="40.6586261" lon="17.3192282"><ele>429.0</ele><time>2026-04-03T16:41:18.462Z</time></trkpt><trkpt lat="40.6585989" lon="17.3190799"><ele>429.25</ele><time>2026-04-03T16:41:19.461Z</time></trkpt><trkpt lat="40.6585712" lon="17.3189194"><ele>429.5</ele><time>2026-04-03T16:41:20.46Z</time></trkpt><trkpt lat="40.6585419" lon="17.3187656"><ele>429.75</ele><time>2026-04-03T16:41:21.461Z</time></trkpt><trkpt lat="40.6585177" lon="17.3186194"><ele>430.0</ele><time>2026-04-03T16:41:22.461Z</time></trkpt><trkpt lat="40.6584938" lon="17.3184607"><ele>430.5</ele><time>2026-04-03T16:41:23.461Z</time></trkpt><trkpt lat="40.6584725" lon="17.3183028"><ele>431.0</ele><time>2026-04-03T16:41:24.46Z</time></trkpt><trkpt lat="40.6584532" lon="17.3181482"><ele>431.5</ele><time>2026-04-03T16:41:25.462Z</time></trkpt><trkpt lat="40.658431" lon="17.3180025"><ele>432.0</ele><time>2026-04-03T16:41:26.461Z</time></trkpt><trkpt lat="40.658411" lon="17.3178635"><ele>432.0</ele><time>2026-04-03T16:41:27.462Z</time></trkpt><trkpt lat="40.6583939" lon="17.3177255"><ele>432.00000000000006</ele><time>2026-04-03T16:41:28.461Z</time></trkpt><trkpt lat="40.6583692" lon="17.3176006"><ele>432.00000000000006</ele><time>2026-04-03T16:41:29.461Z</time></trkpt><trkpt lat="40.6583332" lon="17.3174879"><ele>432.0</ele><time>2026-04-03T16:41:30.461Z</time></trkpt><trkpt lat="40.6582758" lon="17.3173919"><ele>432.0</ele><time>2026-04-03T16:41:31.461Z</time></trkpt><trkpt lat="40.658196" lon="17.3173107"><ele>431.75</ele><time>2026-04-03T16:41:32.461Z</time></trkpt><trkpt lat="40.6580963" lon="17.3172282"><ele>431.5</ele><time>2026-04-03T16:41:33.461Z</time></trkpt><trkpt lat="40.657983" lon="17.317145"><ele>431.25</ele><time>2026-04-03T16:41:34.46Z</time></trkpt><trkpt lat="40.6578613" lon="17.3170624"><ele>431.0</ele><time>2026-04-03T16:41:35.461Z</time></trkpt><trkpt lat="40.6577163" lon="17.316964"><ele>431.5</ele><time>2026-04-03T16:41:36.462Z</time></trkpt><trkpt lat="40.657581" lon="17.3168771"><ele>432.0</ele><time>2026-04-03T16:41:37.461Z</time></trkpt><trkpt lat="40.6574595" lon="17.3167898"><ele>432.5</ele><time>2026-04-03T16:41:38.461Z</time></trkpt><trkpt lat="40.6573371" lon="17.3166906"><ele>433.0</ele><time>2026-04-03T16:41:39.461Z</time></trkpt><trkpt lat="40.6572258" lon="17.3166001"><ele>433.0</ele><time>2026-04-03T16:41:40.462Z</time></trkpt><trkpt lat="40.6571183" lon="17.3165019"><ele>433.0</ele><time>2026-04-03T16:41:41.462Z</time></trkpt><trkpt lat="40.6570167" lon="17.3164025"><ele>433.0</ele><time>2026-04-03T16:41:42.461Z</time></trkpt><trkpt lat="40.6569179" lon="17.3162889"><ele>433.0</ele><time>2026-04-03T16:41:43.462Z</time></trkpt><trkpt lat="40.6568251" lon="17.3161603"><ele>433.75</ele><time>2026-04-03T16:41:44.46Z</time></trkpt><trkpt lat="40.6567381" lon="17.3160366"><ele>434.5</ele><time>2026-04-03T16:41:45.46Z</time></trkpt><trkpt lat="40.6566522" lon="17.3159041"><ele>435.25</ele><time>2026-04-03T16:41:46.461Z</time></trkpt><trkpt lat="40.6565717" lon="17.3157555"><ele>436.0</ele><time>2026-04-03T16:41:47.462Z</time></trkpt><trkpt lat="40.6564874" lon="17.3156093"><ele>436.25</ele><time>2026-04-03T16:41:48.462Z</time></trkpt><trkpt lat="40.6564019" lon="17.3154444"><ele>436.5</ele><time>2026-04-03T16:41:49.462Z</time></trkpt><trkpt lat="40.6563236" lon="17.3153074"><ele>436.75</ele><time>2026-04-03T16:41:50.46Z</time></trkpt><trkpt lat="40.6562428" lon="17.3151511"><ele>437.0</ele><time>2026-04-03T16:41:51.46Z</time></trkpt><trkpt lat="40.6561608" lon="17.3149983"><ele>437.5</ele><time>2026-04-03T16:41:52.46Z</time></trkpt><trkpt lat="40.6560853" lon="17.3148326"><ele>438.0</ele><time>2026-04-03T16:41:53.462Z</time></trkpt><trkpt lat="40.6560164" lon="17.3146814"><ele>438.5</ele><time>2026-04-03T16:41:54.461Z</time></trkpt><trkpt lat="40.6559485" lon="17.3145078"><ele>439.0</ele><time>2026-04-03T16:41:55.46Z</time></trkpt><trkpt lat="40.6558791" lon="17.314355"><ele>439.0</ele><time>2026-04-03T16:41:56.461Z</time></trkpt><trkpt lat="40.6558246" lon="17.3141981"><ele>439.0</ele><time>2026-04-03T16:41:57.461Z</time></trkpt><trkpt lat="40.6557659" lon="17.3140442"><ele>439.0</ele><time>2026-04-03T16:41:58.46Z</time></trkpt><trkpt lat="40.6557128" lon="17.3138853"><ele>439.0</ele><time>2026-04-03T16:41:59.462Z</time></trkpt><trkpt lat="40.6556597" lon="17.3137263"><ele>439.75</ele><time>2026-04-03T16:42:00.462Z</time></trkpt><trkpt lat="40.6556216" lon="17.3135615"><ele>440.5</ele><time>2026-04-03T16:42:01.462Z</time></trkpt><trkpt lat="40.6556044" lon="17.3133941"><ele>441.25</ele><time>2026-04-03T16:42:02.461Z</time></trkpt><trkpt lat="40.6555789" lon="17.3132287"><ele>442.0</ele><time>2026-04-03T16:42:03.46Z</time></trkpt><trkpt lat="40.6555533" lon="17.3130808"><ele>442.75</ele><time>2026-04-03T16:42:04.462Z</time></trkpt><trkpt lat="40.6555116" lon="17.3129358"><ele>443.5</ele><time>2026-04-03T16:42:05.461Z</time></trkpt><trkpt lat="40.6554606" lon="17.3128047"><ele>444.25</ele><time>2026-04-03T16:42:06.461Z</time></trkpt><trkpt lat="40.6553985" lon="17.3126728"><ele>445.0</ele><time>2026-04-03T16:42:07.46Z</time></trkpt><trkpt lat="40.6553318" lon="17.3125337"><ele>446.0</ele><time>2026-04-03T16:42:08.461Z</time></trkpt><trkpt lat="40.6552696" lon="17.3124073"><ele>447.0</ele><time>2026-04-03T16:42:09.461Z</time></trkpt><trkpt lat="40.6552122" lon="17.3122789"><ele>448.0</ele><time>2026-04-03T16:42:10.461Z</time></trkpt><trkpt lat="40.6551588" lon="17.3121293"><ele>449.0</ele><time>2026-04-03T16:42:11.461Z</time></trkpt><trkpt lat="40.6551131" lon="17.3119812"><ele>450.0</ele><time>2026-04-03T16:42:12.462Z</time></trkpt><trkpt lat="40.6550732" lon="17.3118221"><ele>451.0</ele><time>2026-04-03T16:42:13.461Z</time></trkpt><trkpt lat="40.6550389" lon="17.3116688"><ele>452.0</ele><time>2026-04-03T16:42:14.461Z</time></trkpt><trkpt lat="40.6550102" lon="17.311515"><ele>453.0</ele><time>2026-04-03T16:42:15.462Z</time></trkpt><trkpt lat="40.6549883" lon="17.3113574"><ele>454.0</ele><time>2026-04-03T16:42:16.461Z</time></trkpt><trkpt lat="40.6549789" lon="17.3112095"><ele>455.0</ele><time>2026-04-03T16:42:17.462Z</time></trkpt><trkpt lat="40.6549734" lon="17.3110614"><ele>456.0</ele><time>2026-04-03T16:42:18.461Z</time></trkpt><trkpt lat="40.6549842" lon="17.3109168"><ele>457.0</ele><time>2026-04-03T16:42:19.46Z</time></trkpt><trkpt lat="40.6550051" lon="17.3107636"><ele>457.0</ele><time>2026-04-03T16:42:20.461Z</time></trkpt><trkpt lat="40.6550137" lon="17.3106085"><ele>457.0</ele><time>2026-04-03T16:42:21.46Z</time></trkpt><trkpt lat="40.6550102" lon="17.3104584"><ele>457.0</ele><time>2026-04-03T16:42:22.461Z</time></trkpt><trkpt lat="40.6549943" lon="17.310306"><ele>457.0</ele><time>2026-04-03T16:42:23.46Z</time></trkpt><trkpt lat="40.6549966" lon="17.3101723"><ele>458.0</ele><time>2026-04-03T16:42:24.462Z</time></trkpt><trkpt lat="40.6550188" lon="17.3100455"><ele>459.0</ele><time>2026-04-03T16:42:25.461Z</time></trkpt><trkpt lat="40.6550625" lon="17.3099191"><ele>460.0</ele><time>2026-04-03T16:42:26.461Z</time></trkpt><trkpt lat="40.6551321" lon="17.309785"><ele>461.0</ele><time>2026-04-03T16:42:27.461Z</time></trkpt><trkpt lat="40.6552067" lon="17.3096537"><ele>461.0</ele><time>2026-04-03T16:42:28.461Z</time></trkpt><trkpt lat="40.6552833" lon="17.3095111"><ele>461.0</ele><time>2026-04-03T16:42:29.46Z</time></trkpt><trkpt lat="40.6553656" lon="17.3093612"><ele>461.0</ele><time>2026-04-03T16:42:30.462Z</time></trkpt><trkpt lat="40.6554518" lon="17.3092073"><ele>461.0</ele><time>2026-04-03T16:42:31.462Z</time></trkpt><trkpt lat="40.6555516" lon="17.3090301"><ele>462.3333333333333</ele><time>2026-04-03T16:42:32.46Z</time></trkpt><trkpt lat="40.6556497" lon="17.3088674"><ele>463.66666666666663</ele><time>2026-04-03T16:42:33.459Z</time></trkpt><trkpt lat="40.6557331" lon="17.3087124"><ele>465.0</ele><time>2026-04-03T16:42:34.46Z</time></trkpt><trkpt lat="40.6558215" lon="17.3085519"><ele>465.0</ele><time>2026-04-03T16:42:35.46Z</time></trkpt><trkpt lat="40.6559036" lon="17.3084026"><ele>465.0</ele><time>2026-04-03T16:42:36.459Z</time></trkpt><trkpt lat="40.655996" lon="17.3082635"><ele>465.0</ele><time>2026-04-03T16:42:37.46Z</time></trkpt><trkpt lat="40.6560828" lon="17.3081309"><ele>465.0</ele><time>2026-04-03T16:42:38.46Z</time></trkpt><trkpt lat="40.6561711" lon="17.3079972"><ele>464.25</ele><time>2026-04-03T16:42:39.46Z</time></trkpt><trkpt lat="40.6562564" lon="17.3078668"><ele>463.5</ele><time>2026-04-03T16:42:40.461Z</time></trkpt><trkpt lat="40.6563338" lon="17.3077365"><ele>462.75</ele><time>2026-04-03T16:42:41.461Z</time></trkpt><trkpt lat="40.6564038" lon="17.3075964"><ele>462.0</ele><time>2026-04-03T16:42:42.46Z</time></trkpt><trkpt lat="40.6564675" lon="17.307434"><ele>462.0</ele><time>2026-04-03T16:42:43.46Z</time></trkpt><trkpt lat="40.6565282" lon="17.3072565"><ele>462.0</ele><time>2026-04-03T16:42:44.461Z</time></trkpt><trkpt lat="40.6565858" lon="17.3070725"><ele>462.0</ele><time>2026-04-03T16:42:45.46Z</time></trkpt><trkpt lat="40.6566461" lon="17.3068855"><ele>462.33333333333337</ele><time>2026-04-03T16:42:46.461Z</time></trkpt><trkpt lat="40.6567019" lon="17.306706"><ele>462.6666666666667</ele><time>2026-04-03T16:42:47.459Z</time></trkpt><trkpt lat="40.6567569" lon="17.3065024"><ele>463.0</ele><time>2026-04-03T16:42:48.461Z</time></trkpt><trkpt lat="40.6568036" lon="17.3063213"><ele>463.25</ele><time>2026-04-03T16:42:49.46Z</time></trkpt><trkpt lat="40.6568396" lon="17.3061542"><ele>463.5</ele><time>2026-04-03T16:42:50.461Z</time></trkpt><trkpt lat="40.6568725" lon="17.3059911"><ele>463.75</ele><time>2026-04-03T16:42:51.459Z</time></trkpt><trkpt lat="40.6568959" lon="17.3058431"><ele>464.0</ele><time>2026-04-03T16:42:52.46Z</time></trkpt><trkpt lat="40.6568977" lon="17.3057076"><ele>464.0</ele><time>2026-04-03T16:42:53.46Z</time></trkpt><trkpt lat="40.6568716" lon="17.305593"><ele>464.0</ele><time>2026-04-03T16:42:54.461Z</time></trkpt><trkpt lat="40.6568148" lon="17.3055001"><ele>464.0</ele><time>2026-04-03T16:42:55.46Z</time></trkpt><trkpt lat="40.6567279" lon="17.3054091"><ele>464.0</ele><time>2026-04-03T16:42:56.461Z</time></trkpt><trkpt lat="40.6566239" lon="17.3053295"><ele>464.0</ele><time>2026-04-03T16:42:57.46Z</time></trkpt><trkpt lat="40.656514" lon="17.3052476"><ele>463.5</ele><time>2026-04-03T16:42:58.46Z</time></trkpt><trkpt lat="40.6563955" lon="17.3051606"><ele>463.0</ele><time>2026-04-03T16:42:59.459Z</time></trkpt><trkpt lat="40.6562727" lon="17.3050645"><ele>462.5</ele><time>2026-04-03T16:43:00.46Z</time></trkpt><trkpt lat="40.6561539" lon="17.3049603"><ele>462.0</ele><time>2026-04-03T16:43:01.46Z</time></trkpt><trkpt lat="40.6560347" lon="17.3048554"><ele>463.33333333333337</ele><time>2026-04-03T16:43:02.461Z</time></trkpt><trkpt lat="40.6559121" lon="17.3047375"><ele>464.6666666666667</ele><time>2026-04-03T16:43:03.46Z</time></trkpt><trkpt lat="40.6557885" lon="17.3046151"><ele>466.0</ele><time>2026-04-03T16:43:04.46Z</time></trkpt><trkpt lat="40.6556723" lon="17.3044992"><ele>466.0</ele><time>2026-04-03T16:43:05.46Z</time></trkpt><trkpt lat="40.6555634" lon="17.304381"><ele>466.0</ele><time>2026-04-03T16:43:06.46Z</time></trkpt><trkpt lat="40.6554547" lon="17.3042542"><ele>466.0</ele><time>2026-04-03T16:43:07.46Z</time></trkpt><trkpt lat="40.6553515" lon="17.3041406"><ele>466.0</ele><time>2026-04-03T16:43:08.46Z</time></trkpt><trkpt lat="40.655252" lon="17.3040186"><ele>465.75</ele><time>2026-04-03T16:43:09.461Z</time></trkpt><trkpt lat="40.6551542" lon="17.3038882"><ele>465.5</ele><time>2026-04-03T16:43:10.46Z</time></trkpt><trkpt lat="40.6550639" lon="17.3037609"><ele>465.25</ele><time>2026-04-03T16:43:11.459Z</time></trkpt><trkpt lat="40.6549653" lon="17.3036142"><ele>465.0</ele><time>2026-04-03T16:43:12.46Z</time></trkpt><trkpt lat="40.6548869" lon="17.3034907"><ele>465.0</ele><time>2026-04-03T16:43:13.461Z</time></trkpt><trkpt lat="40.6548295" lon="17.3034062"><ele>465.0</ele><time>2026-04-03T16:43:14.46Z</time></trkpt><trkpt lat="40.6547664" lon="17.3033082"><ele>465.0</ele><time>2026-04-03T16:43:15.46Z</time></trkpt><trkpt lat="40.6547157" lon="17.3032216"><ele>465.0</ele><time>2026-04-03T16:43:16.46Z</time></trkpt><trkpt lat="40.6546654" lon="17.3031378"><ele>465.0</ele><time>2026-04-03T16:43:17.459Z</time></trkpt><trkpt lat="40.654619" lon="17.3030464"><ele>465.0</ele><time>2026-04-03T16:43:18.459Z</time></trkpt><trkpt lat="40.654579" lon="17.3029574"><ele>464.8</ele><time>2026-04-03T16:43:19.459Z</time></trkpt><trkpt lat="40.6545334" lon="17.3028461"><ele>464.6</ele><time>2026-04-03T16:43:20.46Z</time></trkpt><trkpt lat="40.6544924" lon="17.3027214"><ele>464.4</ele><time>2026-04-03T16:43:21.46Z</time></trkpt><trkpt lat="40.6544544" lon="17.3025948"><ele>464.2</ele><time>2026-04-03T16:43:22.46Z</time></trkpt><trkpt lat="40.6544195" lon="17.3024462"><ele>464.0</ele><time>2026-04-03T16:43:23.461Z</time></trkpt><trkpt lat="40.6543832" lon="17.3022846"><ele>464.5</ele><time>2026-04-03T16:43:24.459Z</time></trkpt><trkpt lat="40.6543453" lon="17.3021028"><ele>465.0</ele><time>2026-04-03T16:43:25.46Z</time></trkpt><trkpt lat="40.6543086" lon="17.3019212"><ele>465.5</ele><time>2026-04-03T16:43:26.459Z</time></trkpt><trkpt lat="40.654266" lon="17.30177"><ele>466.0</ele><time>2026-04-03T16:43:27.46Z</time></trkpt><trkpt lat="40.6542186" lon="17.3015761"><ele>466.0</ele><time>2026-04-03T16:43:28.46Z</time></trkpt><trkpt lat="40.654189" lon="17.3014373"><ele>466.0</ele><time>2026-04-03T16:43:29.461Z</time></trkpt><trkpt lat="40.6541584" lon="17.3013163"><ele>466.0</ele><time>2026-04-03T16:43:30.46Z</time></trkpt><trkpt lat="40.6541483" lon="17.3011984"><ele>466.0</ele><time>2026-04-03T16:43:31.461Z</time></trkpt><trkpt lat="40.6541699" lon="17.3010966"><ele>466.0</ele><time>2026-04-03T16:43:32.461Z</time></trkpt><trkpt lat="40.6542148" lon="17.3010078"><ele>466.0</ele><time>2026-04-03T16:43:33.46Z</time></trkpt><trkpt lat="40.6542897" lon="17.3009249"><ele>466.0</ele><time>2026-04-03T16:43:34.461Z</time></trkpt><trkpt lat="40.6543989" lon="17.3008668"><ele>466.0</ele><time>2026-04-03T16:43:35.461Z</time></trkpt><trkpt lat="40.6545157" lon="17.3008154"><ele>466.0</ele><time>2026-04-03T16:43:36.46Z</time></trkpt><trkpt lat="40.6546359" lon="17.3007503"><ele>466.0</ele><time>2026-04-03T16:43:37.46Z</time></trkpt><trkpt lat="40.6547585" lon="17.3006802"><ele>466.0</ele><time>2026-04-03T16:43:38.461Z</time></trkpt><trkpt lat="40.6548778" lon="17.3006073"><ele>466.0</ele><time>2026-04-03T16:43:39.461Z</time></trkpt><trkpt lat="40.6549866" lon="17.3005285"><ele>466.0</ele><time>2026-04-03T16:43:40.46Z</time></trkpt><trkpt lat="40.6550976" lon="17.3004508"><ele>466.0</ele><time>2026-04-03T16:43:41.46Z</time></trkpt><trkpt lat="40.6552102" lon="17.3003697"><ele>466.0</ele><time>2026-04-03T16:43:42.461Z</time></trkpt><trkpt lat="40.6553252" lon="17.3002861"><ele>466.0</ele><time>2026-04-03T16:43:43.46Z</time></trkpt><trkpt lat="40.6554527" lon="17.3002112"><ele>466.0</ele><time>2026-04-03T16:43:44.461Z</time></trkpt><trkpt lat="40.6555374" lon="17.3001644"><ele>467.0</ele><time>2026-04-03T16:43:45.459Z</time></trkpt><trkpt lat="40.6556258" lon="17.3000975"><ele>468.0</ele><time>2026-04-03T16:43:46.461Z</time></trkpt><trkpt lat="40.655765" lon="17.2999734"><ele>469.0</ele><time>2026-04-03T16:43:47.461Z</time></trkpt><trkpt lat="40.6558809" lon="17.2998277"><ele>470.0</ele><time>2026-04-03T16:43:48.46Z</time></trkpt><trkpt lat="40.6559877" lon="17.2996787"><ele>470.3333333333333</ele><time>2026-04-03T16:43:49.46Z</time></trkpt><trkpt lat="40.6560939" lon="17.29952"><ele>470.66666666666663</ele><time>2026-04-03T16:43:50.46Z</time></trkpt><trkpt lat="40.6561824" lon="17.2993833"><ele>471.0</ele><time>2026-04-03T16:43:51.461Z</time></trkpt><trkpt lat="40.6563011" lon="17.2992145"><ele>471.66666666666663</ele><time>2026-04-03T16:43:52.461Z</time></trkpt><trkpt lat="40.6564106" lon="17.2990599"><ele>472.3333333333333</ele><time>2026-04-03T16:43:53.461Z</time></trkpt><trkpt lat="40.6565129" lon="17.2989104"><ele>473.0</ele><time>2026-04-03T16:43:54.46Z</time></trkpt><trkpt lat="40.6566184" lon="17.298745"><ele>473.0</ele><time>2026-04-03T16:43:55.46Z</time></trkpt><trkpt lat="40.6567302" lon="17.2985724"><ele>473.0</ele><time>2026-04-03T16:43:56.46Z</time></trkpt><trkpt lat="40.6568479" lon="17.2984127"><ele>473.0</ele><time>2026-04-03T16:43:57.46Z</time></trkpt><trkpt lat="40.6569559" lon="17.2982703"><ele>474.0</ele><time>2026-04-03T16:43:58.459Z</time></trkpt><trkpt lat="40.657053" lon="17.2981279"><ele>475.0</ele><time>2026-04-03T16:43:59.461Z</time></trkpt><trkpt lat="40.6571559" lon="17.2979945"><ele>476.0</ele><time>2026-04-03T16:44:00.459Z</time></trkpt><trkpt lat="40.6572719" lon="17.2978804"><ele>477.0</ele><time>2026-04-03T16:44:01.46Z</time></trkpt><trkpt lat="40.6573784" lon="17.2977705"><ele>477.0</ele><time>2026-04-03T16:44:02.459Z</time></trkpt><trkpt lat="40.6575084" lon="17.2976571"><ele>477.0</ele><time>2026-04-03T16:44:03.46Z</time></trkpt><trkpt lat="40.6576237" lon="17.2975462"><ele>477.0</ele><time>2026-04-03T16:44:04.459Z</time></trkpt><trkpt lat="40.6577302" lon="17.2974407"><ele>477.0</ele><time>2026-04-03T16:44:05.461Z</time></trkpt><trkpt lat="40.6578531" lon="17.2973436"><ele>477.0</ele><time>2026-04-03T16:44:06.46Z</time></trkpt><trkpt lat="40.6579608" lon="17.2972412"><ele>477.0</ele><time>2026-04-03T16:44:07.461Z</time></trkpt><trkpt lat="40.6580582" lon="17.2971144"><ele>477.0</ele><time>2026-04-03T16:44:08.46Z</time></trkpt><trkpt lat="40.6581524" lon="17.2969595"><ele>477.0</ele><time>2026-04-03T16:44:09.461Z</time></trkpt><trkpt lat="40.6582267" lon="17.2968067"><ele>477.0</ele><time>2026-04-03T16:44:10.461Z</time></trkpt><trkpt lat="40.6582838" lon="17.2966609"><ele>477.0</ele><time>2026-04-03T16:44:11.46Z</time></trkpt><trkpt lat="40.6583379" lon="17.2965114"><ele>477.0</ele><time>2026-04-03T16:44:12.461Z</time></trkpt><trkpt lat="40.6583671" lon="17.2963519"><ele>477.0</ele><time>2026-04-03T16:44:13.46Z</time></trkpt><trkpt lat="40.6583895" lon="17.2961895"><ele>477.75</ele><time>2026-04-03T16:44:14.461Z</time></trkpt><trkpt lat="40.6584127" lon="17.2960349"><ele>478.5</ele><time>2026-04-03T16:44:15.46Z</time></trkpt><trkpt lat="40.6584258" lon="17.2958661"><ele>479.25</ele><time>2026-04-03T16:44:16.461Z</time></trkpt><trkpt lat="40.6584242" lon="17.2957014"><ele>480.0</ele><time>2026-04-03T16:44:17.46Z</time></trkpt><trkpt lat="40.6584239" lon="17.2955354"><ele>480.25</ele><time>2026-04-03T16:44:18.459Z</time></trkpt><trkpt lat="40.6584213" lon="17.2953519"><ele>480.5</ele><time>2026-04-03T16:44:19.461Z</time></trkpt><trkpt lat="40.6584234" lon="17.2951701"><ele>480.75</ele><time>2026-04-03T16:44:20.46Z</time></trkpt><trkpt lat="40.6584328" lon="17.2950084"><ele>481.0</ele><time>2026-04-03T16:44:21.459Z</time></trkpt><trkpt lat="40.6584306" lon="17.2948391"><ele>481.0</ele><time>2026-04-03T16:44:22.46Z</time></trkpt><trkpt lat="40.658425" lon="17.2946683"><ele>481.0</ele><time>2026-04-03T16:44:23.461Z</time></trkpt><trkpt lat="40.6584307" lon="17.2944939"><ele>481.0</ele><time>2026-04-03T16:44:24.459Z</time></trkpt><trkpt lat="40.6584353" lon="17.2943244"><ele>481.0</ele><time>2026-04-03T16:44:25.459Z</time></trkpt><trkpt lat="40.6584418" lon="17.2941609"><ele>481.0</ele><time>2026-04-03T16:44:26.46Z</time></trkpt><trkpt lat="40.6584393" lon="17.2939794"><ele>481.0</ele><time>2026-04-03T16:44:27.46Z</time></trkpt><trkpt lat="40.6584223" lon="17.2937791"><ele>481.0</ele><time>2026-04-03T16:44:28.459Z</time></trkpt><trkpt lat="40.65839" lon="17.2935727"><ele>482.0</ele><time>2026-04-03T16:44:29.46Z</time></trkpt><trkpt lat="40.6583578" lon="17.293367"><ele>483.0</ele><time>2026-04-03T16:44:30.459Z</time></trkpt><trkpt lat="40.65832" lon="17.2931523"><ele>484.0</ele><time>2026-04-03T16:44:31.46Z</time></trkpt><trkpt lat="40.658281" lon="17.2929331"><ele>485.33333333333337</ele><time>2026-04-03T16:44:32.461Z</time></trkpt><trkpt lat="40.6582486" lon="17.2927239"><ele>486.66666666666663</ele><time>2026-04-03T16:44:33.461Z</time></trkpt><trkpt lat="40.6582111" lon="17.2925046"><ele>488.0</ele><time>2026-04-03T16:44:34.46Z</time></trkpt><trkpt lat="40.6581734" lon="17.2922932"><ele>488.3333333333333</ele><time>2026-04-03T16:44:35.46Z</time></trkpt><trkpt lat="40.6581362" lon="17.2920826"><ele>488.66666666666663</ele><time>2026-04-03T16:44:36.46Z</time></trkpt><trkpt lat="40.6581119" lon="17.2918935"><ele>489.0</ele><time>2026-04-03T16:44:37.46Z</time></trkpt><trkpt lat="40.6580728" lon="17.2917016"><ele>489.0</ele><time>2026-04-03T16:44:38.459Z</time></trkpt><trkpt lat="40.6580549" lon="17.2915096"><ele>489.0</ele><time>2026-04-03T16:44:39.46Z</time></trkpt><trkpt lat="40.6580162" lon="17.2913018"><ele>489.0</ele><time>2026-04-03T16:44:40.461Z</time></trkpt><trkpt lat="40.6579788" lon="17.2911047"><ele>489.0</ele><time>2026-04-03T16:44:41.46Z</time></trkpt><trkpt lat="40.6579379" lon="17.2909253"><ele>489.0</ele><time>2026-04-03T16:44:42.46Z</time></trkpt><trkpt lat="40.6579014" lon="17.2907706"><ele>489.0</ele><time>2026-04-03T16:44:43.459Z</time></trkpt><trkpt lat="40.6578797" lon="17.290633"><ele>489.0</ele><time>2026-04-03T16:44:44.461Z</time></trkpt><trkpt lat="40.6578599" lon="17.2905229"><ele>489.4</ele><time>2026-04-03T16:44:45.46Z</time></trkpt><trkpt lat="40.6578474" lon="17.2904247"><ele>489.79999999999995</ele><time>2026-04-03T16:44:46.46Z</time></trkpt><trkpt lat="40.6578062" lon="17.2903017"><ele>490.20000000000005</ele><time>2026-04-03T16:44:48.461Z</time></trkpt><trkpt lat="40.6577522" lon="17.2902385"><ele>490.6</ele><time>2026-04-03T16:44:49.46Z</time></trkpt><trkpt lat="40.657688" lon="17.2901373"><ele>491.0</ele><time>2026-04-03T16:44:50.461Z</time></trkpt><trkpt lat="40.6576126" lon="17.2900363"><ele>491.0</ele><time>2026-04-03T16:44:51.459Z</time></trkpt><trkpt lat="40.6575279" lon="17.2899398"><ele>491.0</ele><time>2026-04-03T16:44:52.46Z</time></trkpt><trkpt lat="40.6574553" lon="17.2898504"><ele>491.0</ele><time>2026-04-03T16:44:53.46Z</time></trkpt><trkpt lat="40.6573819" lon="17.2897557"><ele>491.0</ele><time>2026-04-03T16:44:54.459Z</time></trkpt><trkpt lat="40.6573345" lon="17.2896752"><ele>491.0</ele><time>2026-04-03T16:44:55.46Z</time></trkpt><trkpt lat="40.6572742" lon="17.2895973"><ele>491.25</ele><time>2026-04-03T16:44:57.46Z</time></trkpt><trkpt lat="40.6569761" lon="17.2895758"><ele>491.5</ele><time>2026-04-03T16:45:53.46Z</time></trkpt><trkpt lat="40.656903" lon="17.2895626"><ele>491.75</ele><time>2026-04-03T16:45:58.458Z</time></trkpt><trkpt lat="40.6568373" lon="17.2895401"><ele>492.0</ele><time>2026-04-03T16:46:03.459Z</time></trkpt><trkpt lat="40.6567646" lon="17.2895254"><ele>492.4285714285715</ele><time>2026-04-03T16:46:09.356Z</time></trkpt><trkpt lat="40.6566987" lon="17.2895118"><ele>492.8571428571429</ele><time>2026-04-03T16:46:14.46Z</time></trkpt><trkpt lat="40.6566342" lon="17.2894895"><ele>493.2857142857143</ele><time>2026-04-03T16:46:19.472Z</time></trkpt><trkpt lat="40.6565625" lon="17.2894806"><ele>493.7142857142857</ele><time>2026-04-03T16:46:24.458Z</time></trkpt><trkpt lat="40.6564983" lon="17.2894785"><ele>494.1428571428571</ele><time>2026-04-03T16:46:29.459Z</time></trkpt><trkpt lat="40.6564338" lon="17.2894689"><ele>494.5714285714285</ele><time>2026-04-03T16:46:34.352Z</time></trkpt><trkpt lat="40.6563628" lon="17.2894621"><ele>494.99999999999994</ele><time>2026-04-03T16:46:39.46Z</time></trkpt><trkpt lat="40.6563015" lon="17.2894333"><ele>494.99999999999994</ele><time>2026-04-03T16:46:43.459Z</time></trkpt><trkpt lat="40.6562351" lon="17.289415"><ele>495.0</ele><time>2026-04-03T16:46:48.46Z</time></trkpt><trkpt lat="40.6561618" lon="17.2894013"><ele>494.99999999999994</ele><time>2026-04-03T16:46:53.459Z</time></trkpt><trkpt lat="40.6560866" lon="17.2894077"><ele>494.99999999999994</ele><time>2026-04-03T16:46:58.46Z</time></trkpt><trkpt lat="40.6560141" lon="17.2893932"><ele>495.0</ele><time>2026-04-03T16:47:04.46Z</time></trkpt><trkpt lat="40.6559462" lon="17.2893729"><ele>494.99999999999994</ele><time>2026-04-03T16:47:09.417Z</time></trkpt><trkpt lat="40.6558719" lon="17.2893619"><ele>494.99999999999994</ele><time>2026-04-03T16:47:14.482Z</time></trkpt><trkpt lat="40.6558026" lon="17.2893578"><ele>495.5714285714285</ele><time>2026-04-03T16:47:19.46Z</time></trkpt><trkpt lat="40.6557293" lon="17.289347"><ele>496.1428571428571</ele><time>2026-04-03T16:47:24.46Z</time></trkpt><trkpt lat="40.6556524" lon="17.2893443"><ele>496.7142857142857</ele><time>2026-04-03T16:47:30.459Z</time></trkpt><trkpt lat="40.6555851" lon="17.2893243"><ele>497.2857142857143</ele><time>2026-04-03T16:47:35.48Z</time></trkpt><trkpt lat="40.6555211" lon="17.2893143"><ele>497.8571428571429</ele><time>2026-04-03T16:47:40.408Z</time></trkpt><trkpt lat="40.6554484" lon="17.2892977"><ele>498.4285714285715</ele><time>2026-04-03T16:47:45.472Z</time></trkpt><trkpt lat="40.6553827" lon="17.2892847"><ele>499.00000000000006</ele><time>2026-04-03T16:47:50.458Z</time></trkpt><trkpt lat="40.655311" lon="17.2892678"><ele>498.28571428571433</ele><time>2026-04-03T16:47:55.448Z</time></trkpt><trkpt lat="40.6552449" lon="17.2892572"><ele>497.57142857142856</ele><time>2026-04-03T16:48:00.458Z</time></trkpt><trkpt lat="40.6551789" lon="17.2892425"><ele>496.8571428571429</ele><time>2026-04-03T16:48:05.458Z</time></trkpt><trkpt lat="40.6551156" lon="17.2892339"><ele>496.14285714285717</ele><time>2026-04-03T16:48:10.458Z</time></trkpt><trkpt lat="40.6550479" lon="17.2892373"><ele>495.42857142857144</ele><time>2026-04-03T16:48:15.459Z</time></trkpt><trkpt lat="40.6549802" lon="17.2892344"><ele>494.7142857142857</ele><time>2026-04-03T16:48:20.459Z</time></trkpt><trkpt lat="40.6549243" lon="17.2891814"><ele>494.0</ele><time>2026-04-03T16:48:26.389Z</time></trkpt><trkpt lat="40.6549639" lon="17.289249"><ele>494.0</ele><time>2026-04-03T16:49:53.459Z</time></trkpt><trkpt lat="40.6550341" lon="17.2892394"><ele>494.0</ele><time>2026-04-03T16:49:59.459Z</time></trkpt><trkpt lat="40.6551037" lon="17.2892676"><ele>494.0</ele><time>2026-04-03T16:50:09.459Z</time></trkpt><trkpt lat="40.6551713" lon="17.2892731"><ele>494.0</ele><time>2026-04-03T16:50:15.459Z</time></trkpt><trkpt lat="40.6552412" lon="17.2892703"><ele>494.0</ele><time>2026-04-03T16:50:23.458Z</time></trkpt><trkpt lat="40.6553038" lon="17.289293"><ele>494.0</ele><time>2026-04-03T16:50:29.459Z</time></trkpt><trkpt lat="40.6553656" lon="17.2893146"><ele>494.0</ele><time>2026-04-03T16:50:35.457Z</time></trkpt><trkpt lat="40.655439" lon="17.2893348"><ele>494.7142857142857</ele><time>2026-04-03T16:50:41.457Z</time></trkpt><trkpt lat="40.6555142" lon="17.2893469"><ele>495.42857142857144</ele><time>2026-04-03T16:50:47.458Z</time></trkpt><trkpt lat="40.6555834" lon="17.2893616"><ele>496.14285714285717</ele><time>2026-04-03T16:50:52.459Z</time></trkpt><trkpt lat="40.6556465" lon="17.2893744"><ele>496.8571428571429</ele><time>2026-04-03T16:50:56.458Z</time></trkpt><trkpt lat="40.6557234" lon="17.2893722"><ele>497.57142857142856</ele><time>2026-04-03T16:51:01.459Z</time></trkpt><trkpt lat="40.6557952" lon="17.2893853"><ele>498.28571428571433</ele><time>2026-04-03T16:51:06.458Z</time></trkpt><trkpt lat="40.6558646" lon="17.2894067"><ele>499.00000000000006</ele><time>2026-04-03T16:51:11.472Z</time></trkpt><trkpt lat="40.6559374" lon="17.2894172"><ele>499.00000000000006</ele><time>2026-04-03T16:51:17.458Z</time></trkpt><trkpt lat="40.6560091" lon="17.2894198"><ele>499.0</ele><time>2026-04-03T16:51:23.459Z</time></trkpt><trkpt lat="40.6560823" lon="17.2894202"><ele>499.00000000000006</ele><time>2026-04-03T16:51:29.459Z</time></trkpt><trkpt lat="40.6561525" lon="17.2894222"><ele>499.00000000000006</ele><time>2026-04-03T16:51:35.392Z</time></trkpt><trkpt lat="40.6562269" lon="17.2894383"><ele>499.0</ele><time>2026-04-03T16:51:41.459Z</time></trkpt><trkpt lat="40.6562922" lon="17.289431"><ele>499.00000000000006</ele><time>2026-04-03T16:51:47.457Z</time></trkpt><trkpt lat="40.6563623" lon="17.2894365"><ele>499.00000000000006</ele><time>2026-04-03T16:51:52.419Z</time></trkpt><trkpt lat="40.6564228" lon="17.2894828"><ele>498.4285714285715</ele><time>2026-04-03T16:51:56.457Z</time></trkpt><trkpt lat="40.6564632" lon="17.2895502"><ele>497.8571428571429</ele><time>2026-04-03T16:52:01.39Z</time></trkpt><trkpt lat="40.6565276" lon="17.2895729"><ele>497.2857142857143</ele><time>2026-04-03T16:52:06.458Z</time></trkpt><trkpt lat="40.656599" lon="17.2895774"><ele>496.7142857142857</ele><time>2026-04-03T16:52:11.459Z</time></trkpt><trkpt lat="40.6566626" lon="17.2895645"><ele>496.1428571428571</ele><time>2026-04-03T16:52:15.459Z</time></trkpt><trkpt lat="40.6567294" lon="17.2895553"><ele>495.5714285714285</ele><time>2026-04-03T16:52:20.414Z</time></trkpt><trkpt lat="40.6567983" lon="17.2895609"><ele>494.99999999999994</ele><time>2026-04-03T16:52:26.36Z</time></trkpt><trkpt lat="40.6568615" lon="17.2895748"><ele>495.0</ele><time>2026-04-03T16:52:31.457Z</time></trkpt><trkpt lat="40.6569341" lon="17.2895892"><ele>495.0</ele><time>2026-04-03T16:52:37.459Z</time></trkpt><trkpt lat="40.6570027" lon="17.2895972"><ele>495.0</ele><time>2026-04-03T16:52:43.434Z</time></trkpt><trkpt lat="40.6570732" lon="17.2896088"><ele>495.0</ele><time>2026-04-03T16:52:49.459Z</time></trkpt><trkpt lat="40.6571416" lon="17.2896263"><ele>495.0</ele><time>2026-04-03T16:52:55.458Z</time></trkpt><trkpt lat="40.6572149" lon="17.2896157"><ele>495.0</ele><time>2026-04-03T16:53:01.496Z</time></trkpt><trkpt lat="40.6573336" lon="17.2897115"><ele>494.2</ele><time>2026-04-03T16:53:53.458Z</time></trkpt><trkpt lat="40.6573919" lon="17.2897925"><ele>493.4</ele><time>2026-04-03T16:53:54.458Z</time></trkpt><trkpt lat="40.6574704" lon="17.2898758"><ele>492.6</ele><time>2026-04-03T16:53:55.458Z</time></trkpt><trkpt lat="40.6575424" lon="17.2899643"><ele>491.8</ele><time>2026-04-03T16:53:56.457Z</time></trkpt><trkpt lat="40.6576124" lon="17.2900611"><ele>491.0</ele><time>2026-04-03T16:53:57.459Z</time></trkpt><trkpt lat="40.6576779" lon="17.2901403"><ele>491.0</ele><time>2026-04-03T16:53:58.458Z</time></trkpt><trkpt lat="40.6577367" lon="17.2902197"><ele>491.0</ele><time>2026-04-03T16:53:59.458Z</time></trkpt><trkpt lat="40.6577829" lon="17.2902843"><ele>491.0</ele><time>2026-04-03T16:54:00.458Z</time></trkpt><trkpt lat="40.6578344" lon="17.2903996"><ele>491.0</ele><time>2026-04-03T16:54:02.458Z</time></trkpt><trkpt lat="40.6578691" lon="17.2905933"><ele>491.0</ele><time>2026-04-03T16:54:04.459Z</time></trkpt><trkpt lat="40.6578919" lon="17.2907355"><ele>490.5</ele><time>2026-04-03T16:54:05.459Z</time></trkpt><trkpt lat="40.657923" lon="17.2908957"><ele>490.0</ele><time>2026-04-03T16:54:06.457Z</time></trkpt><trkpt lat="40.6579539" lon="17.2910708"><ele>489.5</ele><time>2026-04-03T16:54:07.459Z</time></trkpt><trkpt lat="40.6579807" lon="17.2912501"><ele>489.0</ele><time>2026-04-03T16:54:08.458Z</time></trkpt><trkpt lat="40.658013" lon="17.2914375"><ele>489.0</ele><time>2026-04-03T16:54:09.459Z</time></trkpt><trkpt lat="40.6580478" lon="17.2916132"><ele>489.0</ele><time>2026-04-03T16:54:10.458Z</time></trkpt><trkpt lat="40.6580805" lon="17.291811"><ele>489.0</ele><time>2026-04-03T16:54:11.458Z</time></trkpt><trkpt lat="40.6581124" lon="17.2920122"><ele>489.0</ele><time>2026-04-03T16:54:12.458Z</time></trkpt><trkpt lat="40.6581446" lon="17.2922031"><ele>488.75</ele><time>2026-04-03T16:54:13.459Z</time></trkpt><trkpt lat="40.6581731" lon="17.2923994"><ele>488.5</ele><time>2026-04-03T16:54:14.458Z</time></trkpt><trkpt lat="40.6582082" lon="17.2925841"><ele>488.25</ele><time>2026-04-03T16:54:15.457Z</time></trkpt><trkpt lat="40.6582384" lon="17.2927652"><ele>488.0</ele><time>2026-04-03T16:54:16.459Z</time></trkpt><trkpt lat="40.6582712" lon="17.2929514"><ele>487.0</ele><time>2026-04-03T16:54:17.458Z</time></trkpt><trkpt lat="40.6583052" lon="17.293134"><ele>486.0</ele><time>2026-04-03T16:54:18.459Z</time></trkpt><trkpt lat="40.6583381" lon="17.2933135"><ele>485.0</ele><time>2026-04-03T16:54:19.457Z</time></trkpt><trkpt lat="40.65837" lon="17.2934944"><ele>484.0</ele><time>2026-04-03T16:54:20.458Z</time></trkpt><trkpt lat="40.6583988" lon="17.2936782"><ele>484.0</ele><time>2026-04-03T16:54:21.458Z</time></trkpt><trkpt lat="40.658419" lon="17.2938709"><ele>484.0</ele><time>2026-04-03T16:54:22.458Z</time></trkpt><trkpt lat="40.6584248" lon="17.2940685"><ele>484.0</ele><time>2026-04-03T16:54:23.457Z</time></trkpt><trkpt lat="40.6584259" lon="17.2942651"><ele>484.0</ele><time>2026-04-03T16:54:24.458Z</time></trkpt><trkpt lat="40.6584226" lon="17.2944535"><ele>483.25</ele><time>2026-04-03T16:54:25.459Z</time></trkpt><trkpt lat="40.6584185" lon="17.2946324"><ele>482.5</ele><time>2026-04-03T16:54:26.457Z</time></trkpt><trkpt lat="40.6584152" lon="17.2948095"><ele>481.75</ele><time>2026-04-03T16:54:27.459Z</time></trkpt><trkpt lat="40.6584115" lon="17.2949877"><ele>481.0</ele><time>2026-04-03T16:54:28.458Z</time></trkpt><trkpt lat="40.6584103" lon="17.2951692"><ele>481.0</ele><time>2026-04-03T16:54:29.459Z</time></trkpt><trkpt lat="40.6584079" lon="17.2953464"><ele>481.0</ele><time>2026-04-03T16:54:30.459Z</time></trkpt><trkpt lat="40.658406" lon="17.2955174"><ele>481.0</ele><time>2026-04-03T16:54:31.459Z</time></trkpt><trkpt lat="40.6584054" lon="17.2957029"><ele>481.0</ele><time>2026-04-03T16:54:32.458Z</time></trkpt><trkpt lat="40.6584012" lon="17.2958798"><ele>480.75</ele><time>2026-04-03T16:54:33.458Z</time></trkpt><trkpt lat="40.658399" lon="17.2960545"><ele>480.5</ele><time>2026-04-03T16:54:34.458Z</time></trkpt><trkpt lat="40.6583898" lon="17.2962255"><ele>480.25</ele><time>2026-04-03T16:54:35.457Z</time></trkpt><trkpt lat="40.6583726" lon="17.2963938"><ele>480.0</ele><time>2026-04-03T16:54:36.458Z</time></trkpt><trkpt lat="40.6583415" lon="17.2965595"><ele>479.25</ele><time>2026-04-03T16:54:37.459Z</time></trkpt><trkpt lat="40.6582887" lon="17.2967152"><ele>478.5</ele><time>2026-04-03T16:54:38.458Z</time></trkpt><trkpt lat="40.658226" lon="17.2968576"><ele>477.75</ele><time>2026-04-03T16:54:39.458Z</time></trkpt><trkpt lat="40.6581455" lon="17.2970073"><ele>477.0</ele><time>2026-04-03T16:54:40.457Z</time></trkpt><trkpt lat="40.658061" lon="17.2971512"><ele>477.0</ele><time>2026-04-03T16:54:41.458Z</time></trkpt><trkpt lat="40.6579649" lon="17.2972893"><ele>477.0</ele><time>2026-04-03T16:54:42.458Z</time></trkpt><trkpt lat="40.6578567" lon="17.2974159"><ele>477.0</ele><time>2026-04-03T16:54:43.458Z</time></trkpt><trkpt lat="40.657741" lon="17.2975391"><ele>477.0</ele><time>2026-04-03T16:54:44.458Z</time></trkpt><trkpt lat="40.6576273" lon="17.2976526"><ele>477.0</ele><time>2026-04-03T16:54:45.458Z</time></trkpt><trkpt lat="40.6575116" lon="17.2977547"><ele>477.0</ele><time>2026-04-03T16:54:46.457Z</time></trkpt><trkpt lat="40.6574053" lon="17.2978494"><ele>477.0</ele><time>2026-04-03T16:54:47.457Z</time></trkpt><trkpt lat="40.657291" lon="17.2979439"><ele>477.0</ele><time>2026-04-03T16:54:48.457Z</time></trkpt><trkpt lat="40.6571845" lon="17.2980474"><ele>477.0</ele><time>2026-04-03T16:54:49.456Z</time></trkpt><trkpt lat="40.6570813" lon="17.2981631"><ele>477.0</ele><time>2026-04-03T16:54:50.458Z</time></trkpt><trkpt lat="40.6569783" lon="17.2982923"><ele>477.0</ele><time>2026-04-03T16:54:51.456Z</time></trkpt><trkpt lat="40.6568691" lon="17.2984295"><ele>477.0</ele><time>2026-04-03T16:54:52.458Z</time></trkpt><trkpt lat="40.6567593" lon="17.2985692"><ele>475.66666666666663</ele><time>2026-04-03T16:54:53.457Z</time></trkpt><trkpt lat="40.6566573" lon="17.2987066"><ele>474.3333333333333</ele><time>2026-04-03T16:54:54.456Z</time></trkpt><trkpt lat="40.6565505" lon="17.2988474"><ele>473.0</ele><time>2026-04-03T16:54:55.457Z</time></trkpt><trkpt lat="40.6564397" lon="17.2989891"><ele>473.0</ele><time>2026-04-03T16:54:56.457Z</time></trkpt><trkpt lat="40.6563443" lon="17.2991234"><ele>473.0</ele><time>2026-04-03T16:54:57.457Z</time></trkpt><trkpt lat="40.6562468" lon="17.2992637"><ele>473.0</ele><time>2026-04-03T16:54:58.458Z</time></trkpt><trkpt lat="40.6561403" lon="17.2994042"><ele>473.0</ele><time>2026-04-03T16:54:59.457Z</time></trkpt><trkpt lat="40.6560577" lon="17.2995424"><ele>472.5</ele><time>2026-04-03T16:55:00.458Z</time></trkpt><trkpt lat="40.6559596" lon="17.2996789"><ele>472.0</ele><time>2026-04-03T16:55:01.456Z</time></trkpt><trkpt lat="40.6558618" lon="17.299808"><ele>471.5</ele><time>2026-04-03T16:55:02.456Z</time></trkpt><trkpt lat="40.6557785" lon="17.2999272"><ele>471.0</ele><time>2026-04-03T16:55:03.457Z</time></trkpt><trkpt lat="40.6556826" lon="17.3000351"><ele>470.75</ele><time>2026-04-03T16:55:04.457Z</time></trkpt><trkpt lat="40.6555744" lon="17.3001275"><ele>470.5</ele><time>2026-04-03T16:55:05.457Z</time></trkpt><trkpt lat="40.6554533" lon="17.3002141"><ele>470.25</ele><time>2026-04-03T16:55:06.457Z</time></trkpt><trkpt lat="40.6553163" lon="17.3002868"><ele>470.0</ele><time>2026-04-03T16:55:07.458Z</time></trkpt><trkpt lat="40.655179" lon="17.30037"><ele>469.25</ele><time>2026-04-03T16:55:08.457Z</time></trkpt><trkpt lat="40.655045" lon="17.3004507"><ele>468.5</ele><time>2026-04-03T16:55:09.457Z</time></trkpt><trkpt lat="40.6549132" lon="17.3005261"><ele>467.75</ele><time>2026-04-03T16:55:10.457Z</time></trkpt><trkpt lat="40.6547865" lon="17.3006067"><ele>467.0</ele><time>2026-04-03T16:55:11.457Z</time></trkpt><trkpt lat="40.654651" lon="17.3006916"><ele>467.0</ele><time>2026-04-03T16:55:12.457Z</time></trkpt><trkpt lat="40.6545252" lon="17.3007678"><ele>467.0</ele><time>2026-04-03T16:55:13.457Z</time></trkpt><trkpt lat="40.6544101" lon="17.3008349"><ele>467.0</ele><time>2026-04-03T16:55:14.456Z</time></trkpt><trkpt lat="40.6543062" lon="17.3008942"><ele>467.0</ele><time>2026-04-03T16:55:15.457Z</time></trkpt><trkpt lat="40.6542201" lon="17.3009444"><ele>466.8333333333333</ele><time>2026-04-03T16:55:16.456Z</time></trkpt><trkpt lat="40.6541468" lon="17.3010003"><ele>466.66666666666663</ele><time>2026-04-03T16:55:17.457Z</time></trkpt><trkpt lat="40.6540962" lon="17.3010729"><ele>466.5</ele><time>2026-04-03T16:55:18.456Z</time></trkpt><trkpt lat="40.6540722" lon="17.301159"><ele>466.33333333333337</ele><time>2026-04-03T16:55:19.458Z</time></trkpt><trkpt lat="40.6540726" lon="17.3012691"><ele>466.1666666666667</ele><time>2026-04-03T16:55:20.456Z</time></trkpt><trkpt lat="40.6540938" lon="17.3014037"><ele>466.0</ele><time>2026-04-03T16:55:21.457Z</time></trkpt><trkpt lat="40.6541223" lon="17.3015486"><ele>466.0</ele><time>2026-04-03T16:55:22.457Z</time></trkpt><trkpt lat="40.6541625" lon="17.3017088"><ele>466.0</ele><time>2026-04-03T16:55:23.458Z</time></trkpt><trkpt lat="40.6542051" lon="17.3018828"><ele>466.0</ele><time>2026-04-03T16:55:24.458Z</time></trkpt><trkpt lat="40.6542489" lon="17.3020667"><ele>466.0</ele><time>2026-04-03T16:55:25.456Z</time></trkpt><trkpt lat="40.6542824" lon="17.3022326"><ele>466.0</ele><time>2026-04-03T16:55:26.458Z</time></trkpt><trkpt lat="40.6543166" lon="17.3023856"><ele>466.0</ele><time>2026-04-03T16:55:27.457Z</time></trkpt><trkpt lat="40.6543523" lon="17.3025352"><ele>466.0</ele><time>2026-04-03T16:55:28.457Z</time></trkpt><trkpt lat="40.6543804" lon="17.3026619"><ele>466.0</ele><time>2026-04-03T16:55:29.457Z</time></trkpt><trkpt lat="40.6544148" lon="17.30278"><ele>466.0</ele><time>2026-04-03T16:55:30.458Z</time></trkpt><trkpt lat="40.6544531" lon="17.3028932"><ele>465.83333333333337</ele><time>2026-04-03T16:55:31.457Z</time></trkpt><trkpt lat="40.6545023" lon="17.3029754"><ele>465.6666666666667</ele><time>2026-04-03T16:55:32.458Z</time></trkpt><trkpt lat="40.6545678" lon="17.3030219"><ele>465.5</ele><time>2026-04-03T16:55:33.457Z</time></trkpt><trkpt lat="40.6546366" lon="17.3030537"><ele>465.33333333333337</ele><time>2026-04-03T16:55:34.458Z</time></trkpt><trkpt lat="40.6547103" lon="17.3030848"><ele>465.1666666666667</ele><time>2026-04-03T16:55:35.456Z</time></trkpt><trkpt lat="40.654803" lon="17.3031149"><ele>465.0</ele><time>2026-04-03T16:55:36.457Z</time></trkpt><trkpt lat="40.6549112" lon="17.3031385"><ele>465.0</ele><time>2026-04-03T16:55:37.457Z</time></trkpt><trkpt lat="40.6550357" lon="17.3031565"><ele>465.0</ele><time>2026-04-03T16:55:38.456Z</time></trkpt><trkpt lat="40.6551823" lon="17.3031736"><ele>465.0</ele><time>2026-04-03T16:55:39.458Z</time></trkpt><trkpt lat="40.6553424" lon="17.3031867"><ele>465.0</ele><time>2026-04-03T16:55:40.457Z</time></trkpt><trkpt lat="40.6555152" lon="17.3031985"><ele>463.66666666666663</ele><time>2026-04-03T16:55:41.458Z</time></trkpt><trkpt lat="40.6556966" lon="17.3032087"><ele>462.3333333333333</ele><time>2026-04-03T16:55:42.457Z</time></trkpt><trkpt lat="40.6558744" lon="17.3032253"><ele>461.0</ele><time>2026-04-03T16:55:43.458Z</time></trkpt><trkpt lat="40.6560684" lon="17.3032443"><ele>459.3333333333333</ele><time>2026-04-03T16:55:44.457Z</time></trkpt><trkpt lat="40.656253" lon="17.3032571"><ele>457.66666666666663</ele><time>2026-04-03T16:55:45.458Z</time></trkpt><trkpt lat="40.6564334" lon="17.3032677"><ele>456.0</ele><time>2026-04-03T16:55:46.456Z</time></trkpt><trkpt lat="40.6566096" lon="17.3032784"><ele>456.0</ele><time>2026-04-03T16:55:47.458Z</time></trkpt><trkpt lat="40.6567805" lon="17.3032903"><ele>456.0</ele><time>2026-04-03T16:55:48.458Z</time></trkpt><trkpt lat="40.6569451" lon="17.3033212"><ele>456.0</ele><time>2026-04-03T16:55:49.456Z</time></trkpt><trkpt lat="40.6571069" lon="17.3033692"><ele>455.33333333333337</ele><time>2026-04-03T16:55:50.458Z</time></trkpt><trkpt lat="40.6572586" lon="17.3034346"><ele>454.6666666666667</ele><time>2026-04-03T16:55:51.457Z</time></trkpt><trkpt lat="40.6574143" lon="17.3035046"><ele>454.0</ele><time>2026-04-03T16:55:52.457Z</time></trkpt><trkpt lat="40.6575639" lon="17.3035673"><ele>454.0</ele><time>2026-04-03T16:55:53.457Z</time></trkpt><trkpt lat="40.657709" lon="17.3036106"><ele>454.0</ele><time>2026-04-03T16:55:54.456Z</time></trkpt><trkpt lat="40.6578557" lon="17.3036292"><ele>454.0</ele><time>2026-04-03T16:55:55.457Z</time></trkpt><trkpt lat="40.6580192" lon="17.3036249"><ele>452.33333333333337</ele><time>2026-04-03T16:55:56.458Z</time></trkpt><trkpt lat="40.658189" lon="17.3036151"><ele>450.66666666666663</ele><time>2026-04-03T16:55:57.457Z</time></trkpt><trkpt lat="40.6583546" lon="17.3035989"><ele>449.0</ele><time>2026-04-03T16:55:58.457Z</time></trkpt><trkpt lat="40.6585299" lon="17.3035882"><ele>448.3333333333333</ele><time>2026-04-03T16:55:59.458Z</time></trkpt><trkpt lat="40.6587181" lon="17.3035859"><ele>447.66666666666663</ele><time>2026-04-03T16:56:00.457Z</time></trkpt><trkpt lat="40.6589079" lon="17.3035964"><ele>447.0</ele><time>2026-04-03T16:56:01.456Z</time></trkpt><trkpt lat="40.6591028" lon="17.3036088"><ele>447.0</ele><time>2026-04-03T16:56:02.458Z</time></trkpt><trkpt lat="40.6592935" lon="17.3036203"><ele>447.0</ele><time>2026-04-03T16:56:03.458Z</time></trkpt><trkpt lat="40.6594752" lon="17.303636"><ele>447.0</ele><time>2026-04-03T16:56:04.457Z</time></trkpt><trkpt lat="40.6596554" lon="17.3036448"><ele>446.33333333333337</ele><time>2026-04-03T16:56:05.456Z</time></trkpt><trkpt lat="40.659833" lon="17.3036574"><ele>445.6666666666667</ele><time>2026-04-03T16:56:06.456Z</time></trkpt><trkpt lat="40.6600026" lon="17.3036739"><ele>445.0</ele><time>2026-04-03T16:56:07.458Z</time></trkpt><trkpt lat="40.6601707" lon="17.3036952"><ele>443.33333333333337</ele><time>2026-04-03T16:56:08.458Z</time></trkpt><trkpt lat="40.66032" lon="17.3037264"><ele>441.66666666666663</ele><time>2026-04-03T16:56:09.456Z</time></trkpt><trkpt lat="40.6604637" lon="17.303777"><ele>440.0</ele><time>2026-04-03T16:56:10.458Z</time></trkpt><trkpt lat="40.6606003" lon="17.3038616"><ele>439.66666666666663</ele><time>2026-04-03T16:56:11.457Z</time></trkpt><trkpt lat="40.660742" lon="17.3039756"><ele>439.33333333333337</ele><time>2026-04-03T16:56:12.457Z</time></trkpt><trkpt lat="40.6608834" lon="17.3041054"><ele>439.0</ele><time>2026-04-03T16:56:13.458Z</time></trkpt><trkpt lat="40.6610223" lon="17.3042342"><ele>437.0</ele><time>2026-04-03T16:56:14.456Z</time></trkpt><trkpt lat="40.6611586" lon="17.3043646"><ele>435.0</ele><time>2026-04-03T16:56:15.457Z</time></trkpt><trkpt lat="40.6613147" lon="17.3044768"><ele>433.0</ele><time>2026-04-03T16:56:16.457Z</time></trkpt><trkpt lat="40.6614706" lon="17.3045695"><ele>433.0</ele><time>2026-04-03T16:56:17.457Z</time></trkpt><trkpt lat="40.6616295" lon="17.3046418"><ele>433.0</ele><time>2026-04-03T16:56:18.456Z</time></trkpt><trkpt lat="40.6618017" lon="17.3047001"><ele>433.0</ele><time>2026-04-03T16:56:19.457Z</time></trkpt><trkpt lat="40.6619643" lon="17.3047483"><ele>432.33333333333337</ele><time>2026-04-03T16:56:20.458Z</time></trkpt><trkpt lat="40.662146" lon="17.3047881"><ele>431.66666666666663</ele><time>2026-04-03T16:56:21.457Z</time></trkpt><trkpt lat="40.6622956" lon="17.3048323"><ele>431.0</ele><time>2026-04-03T16:56:22.457Z</time></trkpt><trkpt lat="40.6624382" lon="17.3048895"><ele>431.0</ele><time>2026-04-03T16:56:23.458Z</time></trkpt><trkpt lat="40.6625894" lon="17.3049687"><ele>431.0</ele><time>2026-04-03T16:56:24.458Z</time></trkpt><trkpt lat="40.6627394" lon="17.305052"><ele>431.0</ele><time>2026-04-03T16:56:25.458Z</time></trkpt><trkpt lat="40.6628933" lon="17.3051437"><ele>429.66666666666663</ele><time>2026-04-03T16:56:26.457Z</time></trkpt><trkpt lat="40.6630476" lon="17.305242"><ele>428.33333333333337</ele><time>2026-04-03T16:56:27.457Z</time></trkpt><trkpt lat="40.6632028" lon="17.3053522"><ele>427.0</ele><time>2026-04-03T16:56:28.456Z</time></trkpt><trkpt lat="40.6633553" lon="17.3054693"><ele>426.6666666666667</ele><time>2026-04-03T16:56:29.457Z</time></trkpt><trkpt lat="40.6635011" lon="17.3055926"><ele>426.33333333333337</ele><time>2026-04-03T16:56:30.457Z</time></trkpt><trkpt lat="40.6636344" lon="17.3057123"><ele>426.0</ele><time>2026-04-03T16:56:31.456Z</time></trkpt><trkpt lat="40.6637751" lon="17.3058364"><ele>426.0</ele><time>2026-04-03T16:56:32.458Z</time></trkpt><trkpt lat="40.663908" lon="17.3059477"><ele>426.0</ele><time>2026-04-03T16:56:33.457Z</time></trkpt><trkpt lat="40.6640375" lon="17.3060451"><ele>426.0</ele><time>2026-04-03T16:56:34.457Z</time></trkpt><trkpt lat="40.6641721" lon="17.3061385"><ele>426.0</ele><time>2026-04-03T16:56:35.457Z</time></trkpt><trkpt lat="40.6643109" lon="17.3062293"><ele>426.0</ele><time>2026-04-03T16:56:36.456Z</time></trkpt><trkpt lat="40.664448" lon="17.3063214"><ele>426.0</ele><time>2026-04-03T16:56:37.456Z</time></trkpt><trkpt lat="40.6645824" lon="17.3064074"><ele>424.66666666666663</ele><time>2026-04-03T16:56:38.458Z</time></trkpt><trkpt lat="40.6647178" lon="17.306494"><ele>423.3333333333333</ele><time>2026-04-03T16:56:39.457Z</time></trkpt><trkpt lat="40.6648564" lon="17.3065819"><ele>422.0</ele><time>2026-04-03T16:56:40.458Z</time></trkpt><trkpt lat="40.6649935" lon="17.3066637"><ele>422.0</ele><time>2026-04-03T16:56:41.458Z</time></trkpt><trkpt lat="40.6651322" lon="17.3067488"><ele>422.0</ele><time>2026-04-03T16:56:42.457Z</time></trkpt><trkpt lat="40.6652745" lon="17.3068323"><ele>422.0</ele><time>2026-04-03T16:56:43.457Z</time></trkpt><trkpt lat="40.6654185" lon="17.3069116"><ele>420.66666666666663</ele><time>2026-04-03T16:56:44.458Z</time></trkpt><trkpt lat="40.6655609" lon="17.3069925"><ele>419.33333333333337</ele><time>2026-04-03T16:56:45.457Z</time></trkpt><trkpt lat="40.6657032" lon="17.3070681"><ele>418.0</ele><time>2026-04-03T16:56:46.457Z</time></trkpt><trkpt lat="40.6658392" lon="17.307139"><ele>418.0</ele><time>2026-04-03T16:56:47.457Z</time></trkpt><trkpt lat="40.6659728" lon="17.3072119"><ele>418.0</ele><time>2026-04-03T16:56:48.458Z</time></trkpt><trkpt lat="40.6660961" lon="17.3072756"><ele>418.0</ele><time>2026-04-03T16:56:49.457Z</time></trkpt><trkpt lat="40.6662049" lon="17.3073334"><ele>418.0</ele><time>2026-04-03T16:56:50.458Z</time></trkpt><trkpt lat="40.6662991" lon="17.3073834"><ele>417.79999999999995</ele><time>2026-04-03T16:56:51.458Z</time></trkpt><trkpt lat="40.6663883" lon="17.3074239"><ele>417.6</ele><time>2026-04-03T16:56:52.456Z</time></trkpt><trkpt lat="40.6664846" lon="17.3074515"><ele>417.4</ele><time>2026-04-03T16:56:53.458Z</time></trkpt><trkpt lat="40.6665892" lon="17.3074672"><ele>417.20000000000005</ele><time>2026-04-03T16:56:54.456Z</time></trkpt><trkpt lat="40.6667177" lon="17.3074862"><ele>417.0</ele><time>2026-04-03T16:56:55.457Z</time></trkpt><trkpt lat="40.6668545" lon="17.3075018"><ele>416.75</ele><time>2026-04-03T16:56:56.457Z</time></trkpt><trkpt lat="40.6669964" lon="17.3075215"><ele>416.5</ele><time>2026-04-03T16:56:57.456Z</time></trkpt><trkpt lat="40.6671401" lon="17.3075446"><ele>416.25</ele><time>2026-04-03T16:56:58.456Z</time></trkpt><trkpt lat="40.6672957" lon="17.3075778"><ele>416.0</ele><time>2026-04-03T16:56:59.458Z</time></trkpt><trkpt lat="40.6674515" lon="17.3076177"><ele>416.0</ele><time>2026-04-03T16:57:00.457Z</time></trkpt><trkpt lat="40.6676151" lon="17.307669"><ele>416.0</ele><time>2026-04-03T16:57:01.457Z</time></trkpt><trkpt lat="40.6677749" lon="17.3077227"><ele>416.0</ele><time>2026-04-03T16:57:02.458Z</time></trkpt><trkpt lat="40.6679288" lon="17.3077796"><ele>415.75</ele><time>2026-04-03T16:57:03.457Z</time></trkpt><trkpt lat="40.6680835" lon="17.3078368"><ele>415.5</ele><time>2026-04-03T16:57:04.457Z</time></trkpt><trkpt lat="40.6682211" lon="17.3078849"><ele>415.25</ele><time>2026-04-03T16:57:05.456Z</time></trkpt><trkpt lat="40.6683413" lon="17.3079369"><ele>415.0</ele><time>2026-04-03T16:57:06.457Z</time></trkpt><trkpt lat="40.6684418" lon="17.3080061"><ele>414.8</ele><time>2026-04-03T16:57:07.458Z</time></trkpt><trkpt lat="40.6685207" lon="17.3081039"><ele>414.6</ele><time>2026-04-03T16:57:08.457Z</time></trkpt><trkpt lat="40.6685831" lon="17.3082194"><ele>414.4</ele><time>2026-04-03T16:57:09.457Z</time></trkpt><trkpt lat="40.6686345" lon="17.308338"><ele>414.2</ele><time>2026-04-03T16:57:10.458Z</time></trkpt><trkpt lat="40.6686813" lon="17.3084512"><ele>414.0</ele><time>2026-04-03T16:57:11.456Z</time></trkpt><trkpt lat="40.6687426" lon="17.3085655"><ele>414.75</ele><time>2026-04-03T16:57:12.456Z</time></trkpt><trkpt lat="40.6688227" lon="17.3086803"><ele>415.5</ele><time>2026-04-03T16:57:13.456Z</time></trkpt><trkpt lat="40.6689151" lon="17.3087921"><ele>416.25</ele><time>2026-04-03T16:57:14.457Z</time></trkpt><trkpt lat="40.6690195" lon="17.308905"><ele>417.0</ele><time>2026-04-03T16:57:15.457Z</time></trkpt><trkpt lat="40.6691305" lon="17.3090232"><ele>417.33333333333337</ele><time>2026-04-03T16:57:16.458Z</time></trkpt><trkpt lat="40.6692495" lon="17.3091523"><ele>417.6666666666667</ele><time>2026-04-03T16:57:17.458Z</time></trkpt><trkpt lat="40.6693676" lon="17.3092833"><ele>418.0</ele><time>2026-04-03T16:57:18.458Z</time></trkpt><trkpt lat="40.6694811" lon="17.3094127"><ele>417.5</ele><time>2026-04-03T16:57:19.457Z</time></trkpt><trkpt lat="40.6695962" lon="17.3095466"><ele>417.0</ele><time>2026-04-03T16:57:20.457Z</time></trkpt><trkpt lat="40.6697087" lon="17.3096681"><ele>416.5</ele><time>2026-04-03T16:57:21.456Z</time></trkpt><trkpt lat="40.6698199" lon="17.3097901"><ele>416.0</ele><time>2026-04-03T16:57:22.457Z</time></trkpt><trkpt lat="40.6699354" lon="17.3099013"><ele>416.0</ele><time>2026-04-03T16:57:23.458Z</time></trkpt><trkpt lat="40.6700608" lon="17.3099959"><ele>416.0</ele><time>2026-04-03T16:57:24.457Z</time></trkpt><trkpt lat="40.6701888" lon="17.3100693"><ele>416.0</ele><time>2026-04-03T16:57:25.458Z</time></trkpt><trkpt lat="40.6703172" lon="17.310125"><ele>416.0</ele><time>2026-04-03T16:57:26.456Z</time></trkpt><trkpt lat="40.6704447" lon="17.3101551"><ele>416.5</ele><time>2026-04-03T16:57:27.458Z</time></trkpt><trkpt lat="40.6705843" lon="17.3101635"><ele>417.0</ele><time>2026-04-03T16:57:28.457Z</time></trkpt><trkpt lat="40.6707129" lon="17.3101623"><ele>417.5</ele><time>2026-04-03T16:57:29.457Z</time></trkpt><trkpt lat="40.6708339" lon="17.3101698"><ele>418.0</ele><time>2026-04-03T16:57:30.458Z</time></trkpt><trkpt lat="40.6709523" lon="17.3101936"><ele>418.0</ele><time>2026-04-03T16:57:31.458Z</time></trkpt><trkpt lat="40.6710629" lon="17.3102568"><ele>418.0</ele><time>2026-04-03T16:57:32.456Z</time></trkpt><trkpt lat="40.6711712" lon="17.3103494"><ele>418.0</ele><time>2026-04-03T16:57:33.456Z</time></trkpt><trkpt lat="40.6712752" lon="17.3104597"><ele>418.0</ele><time>2026-04-03T16:57:34.457Z</time></trkpt><trkpt lat="40.6713879" lon="17.3105877"><ele>419.75</ele><time>2026-04-03T16:57:35.457Z</time></trkpt><trkpt lat="40.6715026" lon="17.3107231"><ele>421.5</ele><time>2026-04-03T16:57:36.458Z</time></trkpt><trkpt lat="40.6716108" lon="17.3108501"><ele>423.25</ele><time>2026-04-03T16:57:37.456Z</time></trkpt><trkpt lat="40.6717179" lon="17.3109699"><ele>425.0</ele><time>2026-04-03T16:57:38.457Z</time></trkpt><trkpt lat="40.6718296" lon="17.3110752"><ele>425.5</ele><time>2026-04-03T16:57:39.457Z</time></trkpt><trkpt lat="40.6719547" lon="17.3111593"><ele>426.0</ele><time>2026-04-03T16:57:40.457Z</time></trkpt><trkpt lat="40.6720935" lon="17.3112199"><ele>426.5</ele><time>2026-04-03T16:57:41.458Z</time></trkpt><trkpt lat="40.6722424" lon="17.3112658"><ele>427.0</ele><time>2026-04-03T16:57:42.458Z</time></trkpt><trkpt lat="40.6723992" lon="17.3113047"><ele>427.0</ele><time>2026-04-03T16:57:43.456Z</time></trkpt><trkpt lat="40.6725764" lon="17.311344"><ele>427.0</ele><time>2026-04-03T16:57:44.457Z</time></trkpt><trkpt lat="40.6727541" lon="17.3113862"><ele>427.0</ele><time>2026-04-03T16:57:45.457Z</time></trkpt><trkpt lat="40.6729374" lon="17.311427"><ele>428.6666666666667</ele><time>2026-04-03T16:57:46.458Z</time></trkpt><trkpt lat="40.6731263" lon="17.3114706"><ele>430.33333333333337</ele><time>2026-04-03T16:57:47.456Z</time></trkpt><trkpt lat="40.6733195" lon="17.3115126"><ele>432.0</ele><time>2026-04-03T16:57:48.456Z</time></trkpt><trkpt lat="40.6735124" lon="17.311554"><ele>433.0</ele><time>2026-04-03T16:57:49.457Z</time></trkpt><trkpt lat="40.6736962" lon="17.311592"><ele>434.0</ele><time>2026-04-03T16:57:50.457Z</time></trkpt><trkpt lat="40.6738666" lon="17.3116308"><ele>435.0</ele><time>2026-04-03T16:57:51.457Z</time></trkpt><trkpt lat="40.6740393" lon="17.311672"><ele>435.0</ele><time>2026-04-03T16:57:52.457Z</time></trkpt><trkpt lat="40.6742049" lon="17.3117212"><ele>435.0</ele><time>2026-04-03T16:57:53.456Z</time></trkpt><trkpt lat="40.6743628" lon="17.3117758"><ele>435.0</ele><time>2026-04-03T16:57:54.457Z</time></trkpt><trkpt lat="40.6745208" lon="17.3118325"><ele>435.25</ele><time>2026-04-03T16:57:55.457Z</time></trkpt><trkpt lat="40.6746646" lon="17.3118876"><ele>435.5</ele><time>2026-04-03T16:57:56.457Z</time></trkpt><trkpt lat="40.6747963" lon="17.311941"><ele>435.75</ele><time>2026-04-03T16:57:57.457Z</time></trkpt><trkpt lat="40.6749175" lon="17.3119987"><ele>436.0</ele><time>2026-04-03T16:57:58.456Z</time></trkpt><trkpt lat="40.6750279" lon="17.3120689"><ele>436.0</ele><time>2026-04-03T16:57:59.457Z</time></trkpt><trkpt lat="40.6751383" lon="17.3121565"><ele>436.0</ele><time>2026-04-03T16:58:00.457Z</time></trkpt><trkpt lat="40.6752382" lon="17.312254"><ele>436.0</ele><time>2026-04-03T16:58:01.458Z</time></trkpt><trkpt lat="40.6753244" lon="17.3123663"><ele>436.0</ele><time>2026-04-03T16:58:02.456Z</time></trkpt><trkpt lat="40.6753932" lon="17.312505"><ele>436.5</ele><time>2026-04-03T16:58:03.458Z</time></trkpt><trkpt lat="40.6754515" lon="17.3126705"><ele>437.0</ele><time>2026-04-03T16:58:04.457Z</time></trkpt><trkpt lat="40.6755017" lon="17.3128538"><ele>437.5</ele><time>2026-04-03T16:58:05.458Z</time></trkpt><trkpt lat="40.6755529" lon="17.313039"><ele>438.0</ele><time>2026-04-03T16:58:06.458Z</time></trkpt><trkpt lat="40.6756087" lon="17.313213"><ele>438.0</ele><time>2026-04-03T16:58:07.457Z</time></trkpt><trkpt lat="40.6756749" lon="17.3133859"><ele>438.0</ele><time>2026-04-03T16:58:08.458Z</time></trkpt><trkpt lat="40.675743" lon="17.3135519"><ele>438.0</ele><time>2026-04-03T16:58:09.456Z</time></trkpt><trkpt lat="40.6758111" lon="17.3137116"><ele>438.0</ele><time>2026-04-03T16:58:10.457Z</time></trkpt><trkpt lat="40.6758853" lon="17.3138642"><ele>438.5</ele><time>2026-04-03T16:58:11.457Z</time></trkpt><trkpt lat="40.675964" lon="17.3140147"><ele>439.0</ele><time>2026-04-03T16:58:12.458Z</time></trkpt><trkpt lat="40.6760403" lon="17.3141569"><ele>439.5</ele><time>2026-04-03T16:58:13.456Z</time></trkpt><trkpt lat="40.6761142" lon="17.3142936"><ele>440.0</ele><time>2026-04-03T16:58:14.457Z</time></trkpt><trkpt lat="40.6761858" lon="17.3144334"><ele>438.8</ele><time>2026-04-03T16:58:15.457Z</time></trkpt><trkpt lat="40.6762528" lon="17.3145718"><ele>437.6</ele><time>2026-04-03T16:58:16.457Z</time></trkpt><trkpt lat="40.6763074" lon="17.3146963"><ele>436.4</ele><time>2026-04-03T16:58:17.456Z</time></trkpt><trkpt lat="40.6763605" lon="17.3148106"><ele>435.2</ele><time>2026-04-03T16:58:18.458Z</time></trkpt><trkpt lat="40.6764301" lon="17.314912"><ele>434.0</ele><time>2026-04-03T16:58:19.456Z</time></trkpt><trkpt lat="40.676517" lon="17.3149914"><ele>434.0</ele><time>2026-04-03T16:58:20.457Z</time></trkpt><trkpt lat="40.6766252" lon="17.3150477"><ele>434.0</ele><time>2026-04-03T16:58:21.456Z</time></trkpt><trkpt lat="40.6767442" lon="17.3150896"><ele>434.0</ele><time>2026-04-03T16:58:22.457Z</time></trkpt><trkpt lat="40.6768617" lon="17.3151255"><ele>434.0</ele><time>2026-04-03T16:58:23.456Z</time></trkpt><trkpt lat="40.6769906" lon="17.3151699"><ele>434.0</ele><time>2026-04-03T16:58:24.458Z</time></trkpt><trkpt lat="40.677116" lon="17.3152161"><ele>434.0</ele><time>2026-04-03T16:58:25.458Z</time></trkpt><trkpt lat="40.6772422" lon="17.3152652"><ele>434.0</ele><time>2026-04-03T16:58:26.458Z</time></trkpt><trkpt lat="40.6773695" lon="17.3153117"><ele>434.0</ele><time>2026-04-03T16:58:27.457Z</time></trkpt><trkpt lat="40.6774937" lon="17.3153328"><ele>434.0</ele><time>2026-04-03T16:58:28.457Z</time></trkpt><trkpt lat="40.6776201" lon="17.3153249"><ele>434.0</ele><time>2026-04-03T16:58:29.458Z</time></trkpt><trkpt lat="40.6777449" lon="17.3152894"><ele>434.0</ele><time>2026-04-03T16:58:30.458Z</time></trkpt><trkpt lat="40.6778725" lon="17.3152342"><ele>434.0</ele><time>2026-04-03T16:58:31.457Z</time></trkpt><trkpt lat="40.6780059" lon="17.3151758"><ele>434.0</ele><time>2026-04-03T16:58:32.457Z</time></trkpt><trkpt lat="40.6781337" lon="17.3151177"><ele>434.0</ele><time>2026-04-03T16:58:33.457Z</time></trkpt><trkpt lat="40.6782612" lon="17.3150587"><ele>434.0</ele><time>2026-04-03T16:58:34.457Z</time></trkpt><trkpt lat="40.6783978" lon="17.3150049"><ele>434.0</ele><time>2026-04-03T16:58:35.457Z</time></trkpt><trkpt lat="40.6785427" lon="17.31496"><ele>434.66666666666663</ele><time>2026-04-03T16:58:36.458Z</time></trkpt><trkpt lat="40.6786944" lon="17.314925"><ele>435.33333333333337</ele><time>2026-04-03T16:58:37.457Z</time></trkpt><trkpt lat="40.6788527" lon="17.3148945"><ele>436.0</ele><time>2026-04-03T16:58:38.456Z</time></trkpt><trkpt lat="40.6790042" lon="17.3148686"><ele>436.0</ele><time>2026-04-03T16:58:39.457Z</time></trkpt><trkpt lat="40.6791645" lon="17.3148415"><ele>436.0</ele><time>2026-04-03T16:58:40.457Z</time></trkpt><trkpt lat="40.6793143" lon="17.3148185"><ele>436.0</ele><time>2026-04-03T16:58:41.457Z</time></trkpt><trkpt lat="40.6794573" lon="17.3147969"><ele>436.5</ele><time>2026-04-03T16:58:42.458Z</time></trkpt><trkpt lat="40.679593" lon="17.3147754"><ele>437.0</ele><time>2026-04-03T16:58:43.457Z</time></trkpt><trkpt lat="40.6797207" lon="17.3147454"><ele>437.5</ele><time>2026-04-03T16:58:44.458Z</time></trkpt><trkpt lat="40.6798252" lon="17.3147042"><ele>438.0</ele><time>2026-04-03T16:58:45.457Z</time></trkpt><trkpt lat="40.679917" lon="17.3146406"><ele>438.0</ele><time>2026-04-03T16:58:46.457Z</time></trkpt><trkpt lat="40.6800054" lon="17.3145692"><ele>438.0</ele><time>2026-04-03T16:58:47.457Z</time></trkpt><trkpt lat="40.6801047" lon="17.3144906"><ele>438.0</ele><time>2026-04-03T16:58:48.457Z</time></trkpt><trkpt lat="40.6802076" lon="17.3144136"><ele>438.0</ele><time>2026-04-03T16:58:49.457Z</time></trkpt><trkpt lat="40.6803105" lon="17.3143491"><ele>438.25</ele><time>2026-04-03T16:58:50.457Z</time></trkpt><trkpt lat="40.6804205" lon="17.3142989"><ele>438.5</ele><time>2026-04-03T16:58:51.456Z</time></trkpt><trkpt lat="40.6805304" lon="17.3142705"><ele>438.75</ele><time>2026-04-03T16:58:52.457Z</time></trkpt><trkpt lat="40.6806463" lon="17.3142559"><ele>439.0</ele><time>2026-04-03T16:58:53.458Z</time></trkpt><trkpt lat="40.6807697" lon="17.3142478"><ele>439.0</ele><time>2026-04-03T16:58:54.456Z</time></trkpt><trkpt lat="40.6808929" lon="17.3142374"><ele>439.0</ele><time>2026-04-03T16:58:55.457Z</time></trkpt><trkpt lat="40.6810304" lon="17.3142242"><ele>439.0</ele><time>2026-04-03T16:58:56.457Z</time></trkpt><trkpt lat="40.6811645" lon="17.3142093"><ele>439.0</ele><time>2026-04-03T16:58:57.457Z</time></trkpt><trkpt lat="40.6812998" lon="17.3141927"><ele>439.25</ele><time>2026-04-03T16:58:58.458Z</time></trkpt><trkpt lat="40.6814364" lon="17.3141793"><ele>439.5</ele><time>2026-04-03T16:58:59.458Z</time></trkpt><trkpt lat="40.6815717" lon="17.3141664"><ele>439.75</ele><time>2026-04-03T16:59:00.458Z</time></trkpt><trkpt lat="40.6817078" lon="17.3141564"><ele>440.0</ele><time>2026-04-03T16:59:01.457Z</time></trkpt><trkpt lat="40.6818449" lon="17.3141559"><ele>440.0</ele><time>2026-04-03T16:59:02.457Z</time></trkpt><trkpt lat="40.6819718" lon="17.3141611"><ele>440.0</ele><time>2026-04-03T16:59:03.456Z</time></trkpt><trkpt lat="40.6820998" lon="17.3141779"><ele>440.0</ele><time>2026-04-03T16:59:04.457Z</time></trkpt><trkpt lat="40.6822158" lon="17.3142037"><ele>440.0</ele><time>2026-04-03T16:59:05.458Z</time></trkpt><trkpt lat="40.6823329" lon="17.3142326"><ele>440.0</ele><time>2026-04-03T16:59:06.457Z</time></trkpt><trkpt lat="40.6824545" lon="17.3142488"><ele>440.0</ele><time>2026-04-03T16:59:07.458Z</time></trkpt><trkpt lat="40.6825799" lon="17.3142599"><ele>440.0</ele><time>2026-04-03T16:59:08.457Z</time></trkpt><trkpt lat="40.6827113" lon="17.3142597"><ele>440.0</ele><time>2026-04-03T16:59:09.456Z</time></trkpt><trkpt lat="40.6828469" lon="17.3142442"><ele>440.0</ele><time>2026-04-03T16:59:10.457Z</time></trkpt><trkpt lat="40.6829914" lon="17.3142114"><ele>440.0</ele><time>2026-04-03T16:59:11.457Z</time></trkpt><trkpt lat="40.6831363" lon="17.3141599"><ele>440.0</ele><time>2026-04-03T16:59:12.457Z</time></trkpt><trkpt lat="40.6832768" lon="17.3141116"><ele>440.0</ele><time>2026-04-03T16:59:13.457Z</time></trkpt><trkpt lat="40.6834203" lon="17.3140758"><ele>440.0</ele><time>2026-04-03T16:59:14.457Z</time></trkpt><trkpt lat="40.6835686" lon="17.3140527"><ele>440.0</ele><time>2026-04-03T16:59:15.458Z</time></trkpt><trkpt lat="40.6837217" lon="17.3140424"><ele>440.0</ele><time>2026-04-03T16:59:16.457Z</time></trkpt><trkpt lat="40.6838743" lon="17.3140412"><ele>440.0</ele><time>2026-04-03T16:59:17.458Z</time></trkpt><trkpt lat="40.6840223" lon="17.3140433"><ele>440.0</ele><time>2026-04-03T16:59:18.457Z</time></trkpt><trkpt lat="40.6841584" lon="17.3140499"><ele>440.0</ele><time>2026-04-03T16:59:19.458Z</time></trkpt><trkpt lat="40.6842983" lon="17.3140616"><ele>440.0</ele><time>2026-04-03T16:59:20.456Z</time></trkpt><trkpt lat="40.6844305" lon="17.314075"><ele>440.0</ele><time>2026-04-03T16:59:21.457Z</time></trkpt><trkpt lat="40.6845547" lon="17.3140913"><ele>440.0</ele><time>2026-04-03T16:59:22.458Z</time></trkpt><trkpt lat="40.6846762" lon="17.3141031"><ele>440.0</ele><time>2026-04-03T16:59:23.456Z</time></trkpt><trkpt lat="40.6848017" lon="17.314104"><ele>440.0</ele><time>2026-04-03T16:59:24.458Z</time></trkpt><trkpt lat="40.6849301" lon="17.3141009"><ele>440.0</ele><time>2026-04-03T16:59:25.457Z</time></trkpt><trkpt lat="40.6850634" lon="17.3140941"><ele>440.0</ele><time>2026-04-03T16:59:26.456Z</time></trkpt><trkpt lat="40.6852035" lon="17.3140826"><ele>440.0</ele><time>2026-04-03T16:59:27.458Z</time></trkpt><trkpt lat="40.6853503" lon="17.314066"><ele>440.0</ele><time>2026-04-03T16:59:28.456Z</time></trkpt><trkpt lat="40.6854913" lon="17.3140506"><ele>439.3333333333333</ele><time>2026-04-03T16:59:29.457Z</time></trkpt><trkpt lat="40.6856392" lon="17.3140508"><ele>438.66666666666663</ele><time>2026-04-03T16:59:30.457Z</time></trkpt><trkpt lat="40.6857943" lon="17.3140701"><ele>438.0</ele><time>2026-04-03T16:59:31.457Z</time></trkpt><trkpt lat="40.6859482" lon="17.3141104"><ele>438.0</ele><time>2026-04-03T16:59:32.457Z</time></trkpt><trkpt lat="40.68609" lon="17.3141676"><ele>438.0</ele><time>2026-04-03T16:59:33.458Z</time></trkpt><trkpt lat="40.6862251" lon="17.3142307"><ele>438.0</ele><time>2026-04-03T16:59:34.456Z</time></trkpt><trkpt lat="40.6863518" lon="17.3142819"><ele>438.0</ele><time>2026-04-03T16:59:35.458Z</time></trkpt><trkpt lat="40.6864931" lon="17.3143305"><ele>438.25</ele><time>2026-04-03T16:59:36.458Z</time></trkpt><trkpt lat="40.6866391" lon="17.3143729"><ele>438.5</ele><time>2026-04-03T16:59:37.456Z</time></trkpt><trkpt lat="40.6867849" lon="17.3144127"><ele>438.75</ele><time>2026-04-03T16:59:38.458Z</time></trkpt><trkpt lat="40.686926" lon="17.3144492"><ele>439.0</ele><time>2026-04-03T16:59:39.458Z</time></trkpt><trkpt lat="40.6870642" lon="17.3144939"><ele>439.0</ele><time>2026-04-03T16:59:40.457Z</time></trkpt><trkpt lat="40.6872015" lon="17.3145522"><ele>439.0</ele><time>2026-04-03T16:59:41.458Z</time></trkpt><trkpt lat="40.6873174" lon="17.3146121"><ele>439.0</ele><time>2026-04-03T16:59:42.456Z</time></trkpt><trkpt lat="40.6874156" lon="17.3146688"><ele>439.0</ele><time>2026-04-03T16:59:43.457Z</time></trkpt><trkpt lat="40.6874935" lon="17.3147138"><ele>438.4</ele><time>2026-04-03T16:59:44.457Z</time></trkpt><trkpt lat="40.6875914" lon="17.3147687"><ele>437.79999999999995</ele><time>2026-04-03T16:59:46.457Z</time></trkpt><trkpt lat="40.6877215" lon="17.3148354"><ele>437.20000000000005</ele><time>2026-04-03T16:59:48.457Z</time></trkpt><trkpt lat="40.6878055" lon="17.3148847"><ele>436.6</ele><time>2026-04-03T16:59:49.458Z</time></trkpt><trkpt lat="40.6878951" lon="17.3149391"><ele>436.0</ele><time>2026-04-03T16:59:50.457Z</time></trkpt><trkpt lat="40.6879838" lon="17.3150026"><ele>436.0</ele><time>2026-04-03T16:59:51.456Z</time></trkpt><trkpt lat="40.6880758" lon="17.3150859"><ele>436.0</ele><time>2026-04-03T16:59:52.457Z</time></trkpt><trkpt lat="40.6881602" lon="17.3151908"><ele>436.0</ele><time>2026-04-03T16:59:53.456Z</time></trkpt><trkpt lat="40.6882476" lon="17.3153196"><ele>436.0</ele><time>2026-04-03T16:59:54.457Z</time></trkpt><trkpt lat="40.6883369" lon="17.31546"><ele>435.75</ele><time>2026-04-03T16:59:55.455Z</time></trkpt><trkpt lat="40.688419" lon="17.3156074"><ele>435.5</ele><time>2026-04-03T16:59:56.457Z</time></trkpt><trkpt lat="40.688496" lon="17.3157533"><ele>435.25</ele><time>2026-04-03T16:59:57.456Z</time></trkpt><trkpt lat="40.6885662" lon="17.3158879"><ele>435.0</ele><time>2026-04-03T16:59:58.457Z</time></trkpt><trkpt lat="40.6886396" lon="17.3160172"><ele>435.0</ele><time>2026-04-03T16:59:59.456Z</time></trkpt><trkpt lat="40.688726" lon="17.3161302"><ele>435.0</ele><time>2026-04-03T17:00:00.456Z</time></trkpt><trkpt lat="40.688826" lon="17.3162152"><ele>435.0</ele><time>2026-04-03T17:00:01.457Z</time></trkpt><trkpt lat="40.6889424" lon="17.3162725"><ele>435.0</ele><time>2026-04-03T17:00:02.456Z</time></trkpt><trkpt lat="40.6890798" lon="17.3163201"><ele>435.0</ele><time>2026-04-03T17:00:03.456Z</time></trkpt><trkpt lat="40.6892159" lon="17.3163541"><ele>435.0</ele><time>2026-04-03T17:00:04.456Z</time></trkpt><trkpt lat="40.6893532" lon="17.3163951"><ele>435.0</ele><time>2026-04-03T17:00:05.455Z</time></trkpt><trkpt lat="40.6894849" lon="17.316436"><ele>435.0</ele><time>2026-04-03T17:00:06.457Z</time></trkpt><trkpt lat="40.6896141" lon="17.3164743"><ele>435.66666666666663</ele><time>2026-04-03T17:00:07.455Z</time></trkpt><trkpt lat="40.689758" lon="17.3165104"><ele>436.3333333333333</ele><time>2026-04-03T17:00:08.457Z</time></trkpt><trkpt lat="40.6899055" lon="17.3165461"><ele>437.0</ele><time>2026-04-03T17:00:09.456Z</time></trkpt><trkpt lat="40.6900573" lon="17.316578"><ele>437.0</ele><time>2026-04-03T17:00:10.456Z</time></trkpt><trkpt lat="40.6902031" lon="17.3166033"><ele>437.0</ele><time>2026-04-03T17:00:11.455Z</time></trkpt><trkpt lat="40.6903475" lon="17.3166278"><ele>437.0</ele><time>2026-04-03T17:00:12.457Z</time></trkpt><trkpt lat="40.6904831" lon="17.3166618"><ele>437.0</ele><time>2026-04-03T17:00:13.456Z</time></trkpt><trkpt lat="40.6906212" lon="17.3167129"><ele>436.25</ele><time>2026-04-03T17:00:14.456Z</time></trkpt><trkpt lat="40.6907542" lon="17.3167743"><ele>435.5</ele><time>2026-04-03T17:00:15.456Z</time></trkpt><trkpt lat="40.6908958" lon="17.3168452"><ele>434.75</ele><time>2026-04-03T17:00:16.457Z</time></trkpt><trkpt lat="40.6910276" lon="17.316938"><ele>434.0</ele><time>2026-04-03T17:00:17.456Z</time></trkpt><trkpt lat="40.6911487" lon="17.3170556"><ele>433.0</ele><time>2026-04-03T17:00:18.457Z</time></trkpt><trkpt lat="40.6912769" lon="17.3172046"><ele>432.0</ele><time>2026-04-03T17:00:19.456Z</time></trkpt><trkpt lat="40.6914041" lon="17.3173507"><ele>431.0</ele><time>2026-04-03T17:00:20.457Z</time></trkpt><trkpt lat="40.6915463" lon="17.3174909"><ele>430.66666666666663</ele><time>2026-04-03T17:00:21.457Z</time></trkpt><trkpt lat="40.6916932" lon="17.3176256"><ele>430.33333333333337</ele><time>2026-04-03T17:00:22.457Z</time></trkpt><trkpt lat="40.6918355" lon="17.3177534"><ele>430.0</ele><time>2026-04-03T17:00:23.455Z</time></trkpt><trkpt lat="40.6919783" lon="17.3178791"><ele>429.0</ele><time>2026-04-03T17:00:24.455Z</time></trkpt><trkpt lat="40.6921072" lon="17.3179895"><ele>428.0</ele><time>2026-04-03T17:00:25.455Z</time></trkpt><trkpt lat="40.6922231" lon="17.3180969"><ele>427.0</ele><time>2026-04-03T17:00:26.457Z</time></trkpt><trkpt lat="40.6923172" lon="17.3182134"><ele>426.0</ele><time>2026-04-03T17:00:27.455Z</time></trkpt><trkpt lat="40.6923918" lon="17.3183514"><ele>425.75</ele><time>2026-04-03T17:00:28.456Z</time></trkpt><trkpt lat="40.6924547" lon="17.3185078"><ele>425.5</ele><time>2026-04-03T17:00:29.455Z</time></trkpt><trkpt lat="40.6924958" lon="17.3186655"><ele>425.25</ele><time>2026-04-03T17:00:30.455Z</time></trkpt><trkpt lat="40.6925209" lon="17.3188073"><ele>425.0</ele><time>2026-04-03T17:00:31.456Z</time></trkpt><trkpt lat="40.6925582" lon="17.3189425"><ele>425.0</ele><time>2026-04-03T17:00:32.457Z</time></trkpt><trkpt lat="40.6926168" lon="17.3190616"><ele>425.0</ele><time>2026-04-03T17:00:33.455Z</time></trkpt><trkpt lat="40.6926966" lon="17.3191686"><ele>425.0</ele><time>2026-04-03T17:00:34.456Z</time></trkpt><trkpt lat="40.6927828" lon="17.3192745"><ele>425.0</ele><time>2026-04-03T17:00:35.456Z</time></trkpt><trkpt lat="40.6928719" lon="17.3193626"><ele>423.0</ele><time>2026-04-03T17:00:36.456Z</time></trkpt><trkpt lat="40.6929694" lon="17.3194334"><ele>421.0</ele><time>2026-04-03T17:00:37.457Z</time></trkpt><trkpt lat="40.6930699" lon="17.3194825"><ele>419.0</ele><time>2026-04-03T17:00:38.456Z</time></trkpt><trkpt lat="40.6931783" lon="17.3195253"><ele>417.0</ele><time>2026-04-03T17:00:39.456Z</time></trkpt><trkpt lat="40.6932925" lon="17.319566"><ele>417.0</ele><time>2026-04-03T17:00:40.456Z</time></trkpt><trkpt lat="40.6934027" lon="17.3196046"><ele>417.0</ele><time>2026-04-03T17:00:41.457Z</time></trkpt><trkpt lat="40.6935049" lon="17.3196533"><ele>417.0</ele><time>2026-04-03T17:00:42.457Z</time></trkpt><trkpt lat="40.6936024" lon="17.3197187"><ele>417.0</ele><time>2026-04-03T17:00:43.455Z</time></trkpt><trkpt lat="40.6936967" lon="17.3198102"><ele>417.0</ele><time>2026-04-03T17:00:44.456Z</time></trkpt><trkpt lat="40.693785" lon="17.3199192"><ele>416.25</ele><time>2026-04-03T17:00:45.456Z</time></trkpt><trkpt lat="40.6938733" lon="17.3200345"><ele>415.5</ele><time>2026-04-03T17:00:46.457Z</time></trkpt><trkpt lat="40.6939565" lon="17.3201481"><ele>414.75</ele><time>2026-04-03T17:00:47.456Z</time></trkpt><trkpt lat="40.6940516" lon="17.3202651"><ele>414.0</ele><time>2026-04-03T17:00:48.456Z</time></trkpt><trkpt lat="40.6941464" lon="17.3203816"><ele>414.0</ele><time>2026-04-03T17:00:49.457Z</time></trkpt><trkpt lat="40.6942404" lon="17.3204957"><ele>414.0</ele><time>2026-04-03T17:00:50.455Z</time></trkpt><trkpt lat="40.6943405" lon="17.3206055"><ele>414.0</ele><time>2026-04-03T17:00:51.455Z</time></trkpt><trkpt lat="40.6944464" lon="17.3207096"><ele>414.0</ele><time>2026-04-03T17:00:52.456Z</time></trkpt><trkpt lat="40.6945612" lon="17.3208016"><ele>411.25</ele><time>2026-04-03T17:00:53.456Z</time></trkpt><trkpt lat="40.6946719" lon="17.3208861"><ele>408.5</ele><time>2026-04-03T17:00:54.457Z</time></trkpt><trkpt lat="40.6947857" lon="17.3209568"><ele>405.75</ele><time>2026-04-03T17:00:55.456Z</time></trkpt><trkpt lat="40.6948908" lon="17.3210048"><ele>403.0</ele><time>2026-04-03T17:00:56.456Z</time></trkpt><trkpt lat="40.6949845" lon="17.3210336"><ele>403.0</ele><time>2026-04-03T17:00:57.456Z</time></trkpt><trkpt lat="40.6950804" lon="17.3210636"><ele>403.0</ele><time>2026-04-03T17:00:58.457Z</time></trkpt><trkpt lat="40.6951764" lon="17.3211069"><ele>403.0</ele><time>2026-04-03T17:00:59.455Z</time></trkpt><trkpt lat="40.6952633" lon="17.3211648"><ele>403.0</ele><time>2026-04-03T17:01:00.457Z</time></trkpt><trkpt lat="40.695337" lon="17.3212434"><ele>403.0</ele><time>2026-04-03T17:01:01.456Z</time></trkpt><trkpt lat="40.695408" lon="17.3213414"><ele>401.4</ele><time>2026-04-03T17:01:02.456Z</time></trkpt><trkpt lat="40.6954686" lon="17.3214497"><ele>399.79999999999995</ele><time>2026-04-03T17:01:03.455Z</time></trkpt><trkpt lat="40.6955311" lon="17.3215769"><ele>398.2</ele><time>2026-04-03T17:01:04.457Z</time></trkpt><trkpt lat="40.6955907" lon="17.3217051"><ele>396.6</ele><time>2026-04-03T17:01:05.457Z</time></trkpt><trkpt lat="40.6956517" lon="17.3218352"><ele>395.0</ele><time>2026-04-03T17:01:06.456Z</time></trkpt><trkpt lat="40.6957097" lon="17.3219676"><ele>395.0</ele><time>2026-04-03T17:01:07.456Z</time></trkpt><trkpt lat="40.6957698" lon="17.3221004"><ele>395.0</ele><time>2026-04-03T17:01:08.455Z</time></trkpt><trkpt lat="40.6958355" lon="17.3222323"><ele>395.0</ele><time>2026-04-03T17:01:09.457Z</time></trkpt><trkpt lat="40.6959084" lon="17.322352"><ele>395.0</ele><time>2026-04-03T17:01:10.457Z</time></trkpt><trkpt lat="40.6959963" lon="17.3224589"><ele>393.5</ele><time>2026-04-03T17:01:11.456Z</time></trkpt><trkpt lat="40.696095" lon="17.3225526"><ele>392.0</ele><time>2026-04-03T17:01:12.457Z</time></trkpt><trkpt lat="40.6962001" lon="17.3226329"><ele>390.5</ele><time>2026-04-03T17:01:13.455Z</time></trkpt><trkpt lat="40.6963069" lon="17.3226957"><ele>389.0</ele><time>2026-04-03T17:01:14.456Z</time></trkpt><trkpt lat="40.6964179" lon="17.3227534"><ele>389.0</ele><time>2026-04-03T17:01:15.456Z</time></trkpt><trkpt lat="40.6965286" lon="17.3228091"><ele>389.0</ele><time>2026-04-03T17:01:16.456Z</time></trkpt><trkpt lat="40.6966424" lon="17.3228692"><ele>389.0</ele><time>2026-04-03T17:01:17.457Z</time></trkpt><trkpt lat="40.6967579" lon="17.3229423"><ele>389.0</ele><time>2026-04-03T17:01:18.456Z</time></trkpt><trkpt lat="40.6968657" lon="17.3230214"><ele>390.25</ele><time>2026-04-03T17:01:19.455Z</time></trkpt><trkpt lat="40.6969785" lon="17.3231212"><ele>391.5</ele><time>2026-04-03T17:01:20.455Z</time></trkpt><trkpt lat="40.6970808" lon="17.3232257"><ele>392.75</ele><time>2026-04-03T17:01:21.456Z</time></trkpt><trkpt lat="40.6971743" lon="17.3233347"><ele>394.0</ele><time>2026-04-03T17:01:22.457Z</time></trkpt><trkpt lat="40.6972657" lon="17.3234445"><ele>394.0</ele><time>2026-04-03T17:01:23.456Z</time></trkpt><trkpt lat="40.6973522" lon="17.323554"><ele>394.0</ele><time>2026-04-03T17:01:24.456Z</time></trkpt><trkpt lat="40.6974325" lon="17.3236653"><ele>394.0</ele><time>2026-04-03T17:01:25.456Z</time></trkpt><trkpt lat="40.6975071" lon="17.3237739"><ele>394.0</ele><time>2026-04-03T17:01:26.457Z</time></trkpt><trkpt lat="40.69758" lon="17.3238875"><ele>394.0</ele><time>2026-04-03T17:01:27.456Z</time></trkpt><trkpt lat="40.6976543" lon="17.3240052"><ele>394.0</ele><time>2026-04-03T17:01:28.457Z</time></trkpt><trkpt lat="40.6977253" lon="17.3241225"><ele>394.0</ele><time>2026-04-03T17:01:29.456Z</time></trkpt><trkpt lat="40.6977955" lon="17.324237"><ele>394.0</ele><time>2026-04-03T17:01:30.456Z</time></trkpt><trkpt lat="40.6978734" lon="17.3243618"><ele>394.0</ele><time>2026-04-03T17:01:31.457Z</time></trkpt><trkpt lat="40.6979529" lon="17.3244782"><ele>394.0</ele><time>2026-04-03T17:01:32.456Z</time></trkpt><trkpt lat="40.6980336" lon="17.3245981"><ele>394.0</ele><time>2026-04-03T17:01:33.456Z</time></trkpt><trkpt lat="40.6981143" lon="17.3247217"><ele>394.0</ele><time>2026-04-03T17:01:34.457Z</time></trkpt><trkpt lat="40.6981887" lon="17.3248421"><ele>394.0</ele><time>2026-04-03T17:01:35.456Z</time></trkpt><trkpt lat="40.6982692" lon="17.3249679"><ele>394.0</ele><time>2026-04-03T17:01:36.457Z</time></trkpt><trkpt lat="40.6983548" lon="17.3250829"><ele>394.0</ele><time>2026-04-03T17:01:37.456Z</time></trkpt><trkpt lat="40.6984487" lon="17.3251894"><ele>394.0</ele><time>2026-04-03T17:01:38.456Z</time></trkpt><trkpt lat="40.6985482" lon="17.3252855"><ele>395.0</ele><time>2026-04-03T17:01:39.456Z</time></trkpt><trkpt lat="40.6986546" lon="17.3253652"><ele>396.0</ele><time>2026-04-03T17:01:40.456Z</time></trkpt><trkpt lat="40.6987683" lon="17.3254318"><ele>397.0</ele><time>2026-04-03T17:01:41.456Z</time></trkpt><trkpt lat="40.6988825" lon="17.3254878"><ele>398.0</ele><time>2026-04-03T17:01:42.456Z</time></trkpt><trkpt lat="40.6990004" lon="17.3255436"><ele>398.0</ele><time>2026-04-03T17:01:43.456Z</time></trkpt><trkpt lat="40.6991206" lon="17.3256016"><ele>398.0</ele><time>2026-04-03T17:01:44.457Z</time></trkpt><trkpt lat="40.6992353" lon="17.3256598"><ele>398.0</ele><time>2026-04-03T17:01:45.456Z</time></trkpt><trkpt lat="40.6993499" lon="17.3257186"><ele>398.0</ele><time>2026-04-03T17:01:46.456Z</time></trkpt><trkpt lat="40.6994726" lon="17.3257843"><ele>398.5</ele><time>2026-04-03T17:01:47.456Z</time></trkpt><trkpt lat="40.6995918" lon="17.3258508"><ele>399.0</ele><time>2026-04-03T17:01:48.457Z</time></trkpt><trkpt lat="40.6997062" lon="17.3259252"><ele>399.5</ele><time>2026-04-03T17:01:49.457Z</time></trkpt><trkpt lat="40.699822" lon="17.326003"><ele>400.0</ele><time>2026-04-03T17:01:50.456Z</time></trkpt><trkpt lat="40.6999341" lon="17.3260808"><ele>400.0</ele><time>2026-04-03T17:01:51.456Z</time></trkpt><trkpt lat="40.7000529" lon="17.3261606"><ele>400.0</ele><time>2026-04-03T17:01:52.455Z</time></trkpt><trkpt lat="40.7001671" lon="17.3262362"><ele>400.0</ele><time>2026-04-03T17:01:53.456Z</time></trkpt><trkpt lat="40.7002821" lon="17.326308"><ele>400.0</ele><time>2026-04-03T17:01:54.457Z</time></trkpt><trkpt lat="40.700396" lon="17.32638"><ele>402.0</ele><time>2026-04-03T17:01:55.456Z</time></trkpt><trkpt lat="40.7005099" lon="17.3264499"><ele>404.0</ele><time>2026-04-03T17:01:56.456Z</time></trkpt><trkpt lat="40.7006203" lon="17.326522"><ele>406.0</ele><time>2026-04-03T17:01:57.456Z</time></trkpt><trkpt lat="40.7007256" lon="17.3265871"><ele>408.0</ele><time>2026-04-03T17:01:58.456Z</time></trkpt><trkpt lat="40.7008244" lon="17.3266351"><ele>408.0</ele><time>2026-04-03T17:01:59.456Z</time></trkpt><trkpt lat="40.7009285" lon="17.3266738"><ele>408.0</ele><time>2026-04-03T17:02:00.456Z</time></trkpt><trkpt lat="40.7010231" lon="17.3267046"><ele>408.0</ele><time>2026-04-03T17:02:01.456Z</time></trkpt><trkpt lat="40.7011065" lon="17.3267318"><ele>408.0</ele><time>2026-04-03T17:02:02.456Z</time></trkpt><trkpt lat="40.7011931" lon="17.3267615"><ele>408.0</ele><time>2026-04-03T17:02:03.457Z</time></trkpt><trkpt lat="40.7012711" lon="17.3267917"><ele>407.79999999999995</ele><time>2026-04-03T17:02:04.457Z</time></trkpt><trkpt lat="40.7013499" lon="17.3268255"><ele>407.6</ele><time>2026-04-03T17:02:05.457Z</time></trkpt><trkpt lat="40.7014355" lon="17.3268674"><ele>407.4</ele><time>2026-04-03T17:02:06.456Z</time></trkpt><trkpt lat="40.7015294" lon="17.3269097"><ele>407.20000000000005</ele><time>2026-04-03T17:02:07.456Z</time></trkpt><trkpt lat="40.7016384" lon="17.3269529"><ele>407.0</ele><time>2026-04-03T17:02:08.456Z</time></trkpt><trkpt lat="40.7017475" lon="17.3269909"><ele>407.0</ele><time>2026-04-03T17:02:09.457Z</time></trkpt><trkpt lat="40.7018593" lon="17.3270244"><ele>407.0</ele><time>2026-04-03T17:02:10.456Z</time></trkpt><trkpt lat="40.7019578" lon="17.3270558"><ele>407.0</ele><time>2026-04-03T17:02:11.455Z</time></trkpt><trkpt lat="40.7020423" lon="17.327079"><ele>407.0</ele><time>2026-04-03T17:02:12.456Z</time></trkpt><trkpt lat="40.7021104" lon="17.3271"><ele>407.0</ele><time>2026-04-03T17:02:13.456Z</time></trkpt><trkpt lat="40.7021928" lon="17.3271402"><ele>406.6</ele><time>2026-04-03T17:02:15.457Z</time></trkpt><trkpt lat="40.7022657" lon="17.3271983"><ele>406.20000000000005</ele><time>2026-04-03T17:02:18.456Z</time></trkpt><trkpt lat="40.7023409" lon="17.3273123"><ele>405.8</ele><time>2026-04-03T17:02:20.455Z</time></trkpt><trkpt lat="40.7023705" lon="17.3274095"><ele>405.4</ele><time>2026-04-03T17:02:21.456Z</time></trkpt><trkpt lat="40.7023893" lon="17.3275309"><ele>405.0</ele><time>2026-04-03T17:02:22.456Z</time></trkpt><trkpt lat="40.7024112" lon="17.3276693"><ele>404.5</ele><time>2026-04-03T17:02:23.456Z</time></trkpt><trkpt lat="40.7024402" lon="17.3278235"><ele>404.0</ele><time>2026-04-03T17:02:24.456Z</time></trkpt><trkpt lat="40.702468" lon="17.3279717"><ele>403.5</ele><time>2026-04-03T17:02:25.456Z</time></trkpt><trkpt lat="40.7024907" lon="17.3281188"><ele>403.0</ele><time>2026-04-03T17:02:26.456Z</time></trkpt><trkpt lat="40.7025134" lon="17.3282617"><ele>402.79999999999995</ele><time>2026-04-03T17:02:27.456Z</time></trkpt><trkpt lat="40.7025396" lon="17.3284015"><ele>402.6</ele><time>2026-04-03T17:02:28.456Z</time></trkpt><trkpt lat="40.7025636" lon="17.3285313"><ele>402.4</ele><time>2026-04-03T17:02:29.455Z</time></trkpt><trkpt lat="40.7025804" lon="17.3286518"><ele>402.20000000000005</ele><time>2026-04-03T17:02:30.456Z</time></trkpt><trkpt lat="40.702602" lon="17.3287602"><ele>402.0</ele><time>2026-04-03T17:02:31.457Z</time></trkpt><trkpt lat="40.7026204" lon="17.3288699"><ele>401.3333333333333</ele><time>2026-04-03T17:02:32.456Z</time></trkpt><trkpt lat="40.7026391" lon="17.3289719"><ele>400.66666666666663</ele><time>2026-04-03T17:02:33.457Z</time></trkpt><trkpt lat="40.7026538" lon="17.3290689"><ele>400.0</ele><time>2026-04-03T17:02:34.457Z</time></trkpt><trkpt lat="40.7026717" lon="17.3291698"><ele>399.3333333333333</ele><time>2026-04-03T17:02:35.456Z</time></trkpt><trkpt lat="40.7026881" lon="17.3292627"><ele>398.66666666666663</ele><time>2026-04-03T17:02:36.456Z</time></trkpt><trkpt lat="40.7027069" lon="17.3293503"><ele>398.0</ele><time>2026-04-03T17:02:37.456Z</time></trkpt><trkpt lat="40.7027309" lon="17.3294998"><ele>397.99999999999994</ele><time>2026-04-03T17:02:39.456Z</time></trkpt><trkpt lat="40.7027433" lon="17.3296166"><ele>398.0</ele><time>2026-04-03T17:02:41.457Z</time></trkpt><trkpt lat="40.702751" lon="17.3297065"><ele>398.0</ele><time>2026-04-03T17:02:44.456Z</time></trkpt><trkpt lat="40.7027426" lon="17.329812"><ele>398.0</ele><time>2026-04-03T17:02:49.456Z</time></trkpt><trkpt lat="40.7027771" lon="17.3299392"><ele>397.99999999999994</ele><time>2026-04-03T17:02:51.456Z</time></trkpt><trkpt lat="40.7028067" lon="17.3300317"><ele>398.0</ele><time>2026-04-03T17:02:52.456Z</time></trkpt><trkpt lat="40.7028353" lon="17.3301428"><ele>398.0</ele><time>2026-04-03T17:02:53.457Z</time></trkpt><trkpt lat="40.7028591" lon="17.3302701"><ele>398.0</ele><time>2026-04-03T17:02:54.456Z</time></trkpt><trkpt lat="40.7028826" lon="17.3303998"><ele>398.0</ele><time>2026-04-03T17:02:55.456Z</time></trkpt><trkpt lat="40.7029086" lon="17.3305392"><ele>398.0</ele><time>2026-04-03T17:02:56.457Z</time></trkpt><trkpt lat="40.7029303" lon="17.3306688"><ele>398.0</ele><time>2026-04-03T17:02:57.457Z</time></trkpt><trkpt lat="40.7029512" lon="17.3307915"><ele>397.99999999999994</ele><time>2026-04-03T17:02:58.456Z</time></trkpt><trkpt lat="40.7029714" lon="17.3309091"><ele>398.0</ele><time>2026-04-03T17:02:59.457Z</time></trkpt><trkpt lat="40.7029859" lon="17.3310162"><ele>398.0</ele><time>2026-04-03T17:03:00.456Z</time></trkpt><trkpt lat="40.7029956" lon="17.3310992"><ele>398.0</ele><time>2026-04-03T17:03:01.457Z</time></trkpt><trkpt lat="40.703013" lon="17.3312395"><ele>397.99999999999994</ele><time>2026-04-03T17:03:03.456Z</time></trkpt><trkpt lat="40.7029937" lon="17.3313238"><ele>398.0</ele><time>2026-04-03T17:03:05.456Z</time></trkpt><trkpt lat="40.7029133" lon="17.3313646"><ele>398.0</ele><time>2026-04-03T17:03:07.457Z</time></trkpt><trkpt lat="40.702838" lon="17.3313731"><ele>398.0</ele><time>2026-04-03T17:03:08.457Z</time></trkpt><trkpt lat="40.7027491" lon="17.3313902"><ele>398.0</ele><time>2026-04-03T17:03:09.456Z</time></trkpt><trkpt lat="40.7026429" lon="17.3314155"><ele>398.0</ele><time>2026-04-03T17:03:10.456Z</time></trkpt><trkpt lat="40.7025353" lon="17.3314471"><ele>398.0</ele><time>2026-04-03T17:03:11.455Z</time></trkpt><trkpt lat="40.7024204" lon="17.33148"><ele>399.0</ele><time>2026-04-03T17:03:12.455Z</time></trkpt><trkpt lat="40.702309" lon="17.3315096"><ele>400.0</ele><time>2026-04-03T17:03:13.455Z</time></trkpt><trkpt lat="40.7022005" lon="17.3315404"><ele>401.0</ele><time>2026-04-03T17:03:14.457Z</time></trkpt><trkpt lat="40.7020971" lon="17.3315695"><ele>402.0</ele><time>2026-04-03T17:03:15.456Z</time></trkpt><trkpt lat="40.7020012" lon="17.3315946"><ele>403.0</ele><time>2026-04-03T17:03:16.456Z</time></trkpt><trkpt lat="40.7019205" lon="17.3316167"><ele>402.6666666666667</ele><time>2026-04-03T17:03:17.456Z</time></trkpt><trkpt lat="40.7018557" lon="17.3316341"><ele>402.33333333333337</ele><time>2026-04-03T17:03:18.457Z</time></trkpt><trkpt lat="40.7017788" lon="17.3316557"><ele>402.0</ele><time>2026-04-03T17:03:20.457Z</time></trkpt><trkpt lat="40.7017118" lon="17.3316745"><ele>401.66666666666663</ele><time>2026-04-03T17:03:24.456Z</time></trkpt><trkpt lat="40.7016022" lon="17.3317121"><ele>401.3333333333333</ele><time>2026-04-03T17:03:29.456Z</time></trkpt><trkpt lat="40.7015333" lon="17.3317384"><ele>401.0</ele><time>2026-04-03T17:03:30.457Z</time></trkpt><trkpt lat="40.7014591" lon="17.3317648"><ele>400.99999999999994</ele><time>2026-04-03T17:03:31.457Z</time></trkpt><trkpt lat="40.7013775" lon="17.3317911"><ele>401.0</ele><time>2026-04-03T17:03:32.457Z</time></trkpt><trkpt lat="40.7012942" lon="17.3318185"><ele>401.0</ele><time>2026-04-03T17:03:33.457Z</time></trkpt><trkpt lat="40.7012152" lon="17.3318435"><ele>401.0</ele><time>2026-04-03T17:03:34.456Z</time></trkpt><trkpt lat="40.701145" lon="17.3318651"><ele>400.99999999999994</ele><time>2026-04-03T17:03:35.456Z</time></trkpt><trkpt lat="40.7010713" lon="17.3318866"><ele>401.0</ele><time>2026-04-03T17:03:36.457Z</time></trkpt><trkpt lat="40.7009971" lon="17.3319125"><ele>401.16666666666663</ele><time>2026-04-03T17:03:37.455Z</time></trkpt><trkpt lat="40.7009189" lon="17.3319495"><ele>401.3333333333333</ele><time>2026-04-03T17:03:38.457Z</time></trkpt><trkpt lat="40.7008454" lon="17.3320024"><ele>401.5</ele><time>2026-04-03T17:03:39.455Z</time></trkpt><trkpt lat="40.7007754" lon="17.3320659"><ele>401.66666666666663</ele><time>2026-04-03T17:03:40.456Z</time></trkpt><trkpt lat="40.7007098" lon="17.3321373"><ele>401.8333333333333</ele><time>2026-04-03T17:03:41.456Z</time></trkpt><trkpt lat="40.7006487" lon="17.3322166"><ele>402.0</ele><time>2026-04-03T17:03:42.457Z</time></trkpt><trkpt lat="40.7005798" lon="17.3322966"><ele>402.1666666666667</ele><time>2026-04-03T17:03:43.456Z</time></trkpt><trkpt lat="40.7005095" lon="17.3323747"><ele>402.33333333333337</ele><time>2026-04-03T17:03:44.456Z</time></trkpt><trkpt lat="40.7004417" lon="17.3324488"><ele>402.5</ele><time>2026-04-03T17:03:45.456Z</time></trkpt><trkpt lat="40.7003741" lon="17.3325222"><ele>402.6666666666667</ele><time>2026-04-03T17:03:46.456Z</time></trkpt><trkpt lat="40.7003074" lon="17.3325947"><ele>402.83333333333337</ele><time>2026-04-03T17:03:47.457Z</time></trkpt><trkpt lat="40.700246" lon="17.3326601"><ele>403.0</ele><time>2026-04-03T17:03:48.456Z</time></trkpt><trkpt lat="40.7001918" lon="17.3327189"><ele>403.00000000000006</ele><time>2026-04-03T17:03:49.457Z</time></trkpt><trkpt lat="40.700109" lon="17.3328098"><ele>403.0</ele><time>2026-04-03T17:03:51.456Z</time></trkpt><trkpt lat="40.7000579" lon="17.3328627"><ele>403.0</ele><time>2026-04-03T17:03:54.455Z</time></trkpt><trkpt lat="40.6999905" lon="17.3329317"><ele>403.0</ele><time>2026-04-03T17:04:02.454Z</time></trkpt><trkpt lat="40.699935" lon="17.33299"><ele>403.00000000000006</ele><time>2026-04-03T17:04:04.455Z</time></trkpt><trkpt lat="40.6998692" lon="17.3330615"><ele>403.0</ele><time>2026-04-03T17:04:06.455Z</time></trkpt><trkpt lat="40.6997948" lon="17.3331405"><ele>404.2</ele><time>2026-04-03T17:04:08.456Z</time></trkpt><trkpt lat="40.6997082" lon="17.3332325"><ele>405.4</ele><time>2026-04-03T17:04:10.455Z</time></trkpt><trkpt lat="40.6996176" lon="17.3333337"><ele>406.59999999999997</ele><time>2026-04-03T17:04:12.455Z</time></trkpt><trkpt lat="40.699541" lon="17.3334248"><ele>407.79999999999995</ele><time>2026-04-03T17:04:14.456Z</time></trkpt><trkpt lat="40.6994758" lon="17.3335139"><ele>409.0</ele><time>2026-04-03T17:04:16.455Z</time></trkpt><trkpt lat="40.6994211" lon="17.3335956"><ele>409.1428571428571</ele><time>2026-04-03T17:04:18.455Z</time></trkpt><trkpt lat="40.6993715" lon="17.3336786"><ele>409.28571428571433</ele><time>2026-04-03T17:04:21.454Z</time></trkpt><trkpt lat="40.6993282" lon="17.333764"><ele>409.42857142857144</ele><time>2026-04-03T17:04:27.456Z</time></trkpt><trkpt lat="40.6992929" lon="17.3338339"><ele>409.57142857142856</ele><time>2026-04-03T17:04:32.455Z</time></trkpt><trkpt lat="40.6992559" lon="17.3339116"><ele>409.71428571428567</ele><time>2026-04-03T17:04:41.455Z</time></trkpt><trkpt lat="40.6992276" lon="17.3339882"><ele>409.8571428571429</ele><time>2026-04-03T17:04:44.454Z</time></trkpt><trkpt lat="40.6991927" lon="17.3340802"><ele>410.0</ele><time>2026-04-03T17:04:51.454Z</time></trkpt><trkpt lat="40.6991657" lon="17.3341703"><ele>410.8571428571429</ele><time>2026-04-03T17:05:01.455Z</time></trkpt><trkpt lat="40.6991412" lon="17.3342545"><ele>411.71428571428567</ele><time>2026-04-03T17:05:08.455Z</time></trkpt><trkpt lat="40.6991303" lon="17.3343446"><ele>412.57142857142856</ele><time>2026-04-03T17:05:10.455Z</time></trkpt><trkpt lat="40.6991178" lon="17.3344556"><ele>413.42857142857144</ele><time>2026-04-03T17:05:12.455Z</time></trkpt><trkpt lat="40.6991252" lon="17.3345493"><ele>414.28571428571433</ele><time>2026-04-03T17:05:15.455Z</time></trkpt><trkpt lat="40.6991285" lon="17.3346404"><ele>415.1428571428571</ele><time>2026-04-03T17:05:21.454Z</time></trkpt><trkpt lat="40.6991382" lon="17.3347324"><ele>416.0</ele><time>2026-04-03T17:05:25.454Z</time></trkpt><trkpt lat="40.6991558" lon="17.3348368"><ele>416.66666666666663</ele><time>2026-04-03T17:05:29.455Z</time></trkpt><trkpt lat="40.6991744" lon="17.3349346"><ele>417.3333333333333</ele><time>2026-04-03T17:05:33.455Z</time></trkpt><trkpt lat="40.6991811" lon="17.3350255"><ele>418.0</ele><time>2026-04-03T17:05:36.456Z</time></trkpt><trkpt lat="40.6991864" lon="17.3351229"><ele>418.66666666666663</ele><time>2026-04-03T17:05:42.454Z</time></trkpt><trkpt lat="40.6991873" lon="17.3352183"><ele>419.3333333333333</ele><time>2026-04-03T17:05:44.454Z</time></trkpt><trkpt lat="40.6991794" lon="17.335352"><ele>420.0</ele><time>2026-04-03T17:05:46.456Z</time></trkpt><trkpt lat="40.6991541" lon="17.3354764"><ele>420.6666666666667</ele><time>2026-04-03T17:05:48.456Z</time></trkpt><trkpt lat="40.6991211" lon="17.3355707"><ele>421.33333333333337</ele><time>2026-04-03T17:05:50.455Z</time></trkpt><trkpt lat="40.6990852" lon="17.3356602"><ele>422.0</ele><time>2026-04-03T17:05:53.456Z</time></trkpt><trkpt lat="40.6990387" lon="17.3357575"><ele>422.6666666666667</ele><time>2026-04-03T17:05:56.456Z</time></trkpt><trkpt lat="40.6989989" lon="17.3358421"><ele>423.33333333333337</ele><time>2026-04-03T17:06:00.455Z</time></trkpt><trkpt lat="40.698957" lon="17.3359259"><ele>424.0</ele><time>2026-04-03T17:06:03.455Z</time></trkpt><trkpt lat="40.698919" lon="17.3360083"><ele>424.0</ele><time>2026-04-03T17:06:05.455Z</time></trkpt><trkpt lat="40.698882" lon="17.3360971"><ele>424.0</ele><time>2026-04-03T17:06:07.456Z</time></trkpt><trkpt lat="40.6988412" lon="17.3362042"><ele>424.0</ele><time>2026-04-03T17:06:09.455Z</time></trkpt><trkpt lat="40.698792" lon="17.3363339"><ele>424.0</ele><time>2026-04-03T17:06:11.455Z</time></trkpt><trkpt lat="40.6987452" lon="17.3364593"><ele>424.0</ele><time>2026-04-03T17:06:13.455Z</time></trkpt><trkpt lat="40.6987134" lon="17.3365515"><ele>424.1666666666667</ele><time>2026-04-03T17:06:16.455Z</time></trkpt><trkpt lat="40.6986892" lon="17.3366341"><ele>424.33333333333337</ele><time>2026-04-03T17:06:20.456Z</time></trkpt><trkpt lat="40.6986639" lon="17.3367153"><ele>424.5</ele><time>2026-04-03T17:06:23.455Z</time></trkpt><trkpt lat="40.6986374" lon="17.3368071"><ele>424.66666666666663</ele><time>2026-04-03T17:06:26.456Z</time></trkpt><trkpt lat="40.6986156" lon="17.3368884"><ele>424.8333333333333</ele><time>2026-04-03T17:06:28.455Z</time></trkpt><trkpt lat="40.6985917" lon="17.3369907"><ele>425.0</ele><time>2026-04-03T17:06:30.456Z</time></trkpt><trkpt lat="40.6985648" lon="17.3371115"><ele>424.49999999999994</ele><time>2026-04-03T17:06:32.455Z</time></trkpt><trkpt lat="40.6985375" lon="17.3372403"><ele>424.0</ele><time>2026-04-03T17:06:34.455Z</time></trkpt><trkpt lat="40.6985123" lon="17.337347"><ele>423.5</ele><time>2026-04-03T17:06:36.455Z</time></trkpt><trkpt lat="40.6984828" lon="17.3374371"><ele>423.0</ele><time>2026-04-03T17:06:48.456Z</time></trkpt><trkpt lat="40.6984527" lon="17.33752"><ele>422.49999999999994</ele><time>2026-04-03T17:06:50.454Z</time></trkpt><trkpt lat="40.6984571" lon="17.3376079"><ele>422.0</ele><time>2026-04-03T17:06:53.454Z</time></trkpt><trkpt lat="40.6985031" lon="17.3376754"><ele>421.99999999999994</ele><time>2026-04-03T17:06:55.456Z</time></trkpt><trkpt lat="40.6985624" lon="17.3377179"><ele>422.0</ele><time>2026-04-03T17:06:57.456Z</time></trkpt><trkpt lat="40.6986407" lon="17.3377483"><ele>422.0</ele><time>2026-04-03T17:07:00.455Z</time></trkpt><trkpt lat="40.6987249" lon="17.3377785"><ele>422.0</ele><time>2026-04-03T17:07:03.456Z</time></trkpt><trkpt lat="40.6988065" lon="17.3378126"><ele>421.99999999999994</ele><time>2026-04-03T17:07:05.454Z</time></trkpt><trkpt lat="40.6988671" lon="17.3378396"><ele>422.0</ele><time>2026-04-03T17:07:07.455Z</time></trkpt><trkpt lat="40.6989316" lon="17.3378714"><ele>422.8333333333333</ele><time>2026-04-03T17:07:10.455Z</time></trkpt><trkpt lat="40.6990083" lon="17.3379035"><ele>423.66666666666663</ele><time>2026-04-03T17:07:13.454Z</time></trkpt><trkpt lat="40.6990821" lon="17.3379347"><ele>424.5</ele><time>2026-04-03T17:07:15.456Z</time></trkpt><trkpt lat="40.6991664" lon="17.3379657"><ele>425.33333333333337</ele><time>2026-04-03T17:07:17.455Z</time></trkpt><trkpt lat="40.6992361" lon="17.3380025"><ele>426.1666666666667</ele><time>2026-04-03T17:07:19.455Z</time></trkpt><trkpt lat="40.6992992" lon="17.338035"><ele>427.0</ele><time>2026-04-03T17:07:21.455Z</time></trkpt><trkpt lat="40.6993817" lon="17.3380713"><ele>427.33333333333337</ele><time>2026-04-03T17:07:23.454Z</time></trkpt><trkpt lat="40.6994479" lon="17.3380931"><ele>427.6666666666667</ele><time>2026-04-03T17:07:25.455Z</time></trkpt><trkpt lat="40.6995297" lon="17.3381167"><ele>428.0</ele><time>2026-04-03T17:07:27.456Z</time></trkpt><trkpt lat="40.6996058" lon="17.3381482"><ele>428.33333333333337</ele><time>2026-04-03T17:07:29.454Z</time></trkpt><trkpt lat="40.699677" lon="17.3381764"><ele>428.6666666666667</ele><time>2026-04-03T17:07:31.456Z</time></trkpt><trkpt lat="40.6997554" lon="17.3381991"><ele>429.0</ele><time>2026-04-03T17:07:33.456Z</time></trkpt><trkpt lat="40.6998238" lon="17.3382256"><ele>429.0</ele><time>2026-04-03T17:07:35.454Z</time></trkpt><trkpt lat="40.6999036" lon="17.3382614"><ele>429.0</ele><time>2026-04-03T17:07:38.455Z</time></trkpt><trkpt lat="40.6999625" lon="17.3382909"><ele>429.0</ele><time>2026-04-03T17:07:41.455Z</time></trkpt><trkpt lat="40.7000457" lon="17.3383266"><ele>429.0</ele><time>2026-04-03T17:07:45.454Z</time></trkpt><trkpt lat="40.7001027" lon="17.3383642"><ele>429.0</ele><time>2026-04-03T17:07:47.455Z</time></trkpt><trkpt lat="40.7001897" lon="17.3383837"><ele>429.0</ele><time>2026-04-03T17:07:49.454Z</time></trkpt><trkpt lat="40.7002546" lon="17.3384042"><ele>428.0</ele><time>2026-04-03T17:07:51.454Z</time></trkpt><trkpt lat="40.7003228" lon="17.3384272"><ele>427.0</ele><time>2026-04-03T17:07:53.453Z</time></trkpt><trkpt lat="40.7004082" lon="17.3384631"><ele>426.0</ele><time>2026-04-03T17:07:55.454Z</time></trkpt><trkpt lat="40.7004924" lon="17.3384958"><ele>425.0</ele><time>2026-04-03T17:07:57.454Z</time></trkpt><trkpt lat="40.7005644" lon="17.3385262"><ele>424.0</ele><time>2026-04-03T17:09:02.454Z</time></trkpt><trkpt lat="40.7006577" lon="17.3385665"><ele>423.0</ele><time>2026-04-03T17:09:05.455Z</time></trkpt><trkpt lat="40.7007411" lon="17.3386016"><ele>423.0</ele><time>2026-04-03T17:09:07.455Z</time></trkpt><trkpt lat="40.7008384" lon="17.3386402"><ele>423.0</ele><time>2026-04-03T17:09:09.454Z</time></trkpt><trkpt lat="40.7009623" lon="17.3386937"><ele>423.0</ele><time>2026-04-03T17:09:11.454Z</time></trkpt><trkpt lat="40.7010382" lon="17.3387254"><ele>423.0</ele><time>2026-04-03T17:09:12.454Z</time></trkpt><trkpt lat="40.7011154" lon="17.3387568"><ele>423.0</ele><time>2026-04-03T17:09:13.455Z</time></trkpt><trkpt lat="40.7011911" lon="17.3387885"><ele>423.0</ele><time>2026-04-03T17:09:14.454Z</time></trkpt><trkpt lat="40.7012705" lon="17.3388216"><ele>423.0</ele><time>2026-04-03T17:09:15.454Z</time></trkpt><trkpt lat="40.701344" lon="17.3388558"><ele>423.0</ele><time>2026-04-03T17:09:16.454Z</time></trkpt><trkpt lat="40.7014131" lon="17.3388918"><ele>423.0</ele><time>2026-04-03T17:09:17.453Z</time></trkpt><trkpt lat="40.701488" lon="17.3389225"><ele>423.0</ele><time>2026-04-03T17:09:18.454Z</time></trkpt><trkpt lat="40.7015658" lon="17.338956"><ele>423.0</ele><time>2026-04-03T17:09:19.455Z</time></trkpt><trkpt lat="40.7016463" lon="17.3389907"><ele>423.0</ele><time>2026-04-03T17:09:20.453Z</time></trkpt><trkpt lat="40.7017113" lon="17.3390228"><ele>423.0</ele><time>2026-04-03T17:09:21.454Z</time></trkpt><trkpt lat="40.7017755" lon="17.3390513"><ele>423.0</ele><time>2026-04-03T17:09:22.454Z</time></trkpt><trkpt lat="40.7018363" lon="17.3390774"><ele>423.0</ele><time>2026-04-03T17:09:23.454Z</time></trkpt><trkpt lat="40.7019105" lon="17.3391076"><ele>423.0</ele><time>2026-04-03T17:09:25.454Z</time></trkpt><trkpt lat="40.7020658" lon="17.3391801"><ele>423.0</ele><time>2026-04-03T17:10:09.454Z</time></trkpt><trkpt lat="40.7021653" lon="17.3392272"><ele>423.0</ele><time>2026-04-03T17:10:11.454Z</time></trkpt><trkpt lat="40.7022524" lon="17.3392665"><ele>423.0</ele><time>2026-04-03T17:10:13.454Z</time></trkpt><trkpt lat="40.7023235" lon="17.3392894"><ele>423.0</ele><time>2026-04-03T17:10:36.455Z</time></trkpt><trkpt lat="40.7023966" lon="17.33932"><ele>423.0</ele><time>2026-04-03T17:10:39.453Z</time></trkpt><trkpt lat="40.7024634" lon="17.3393476"><ele>423.0</ele><time>2026-04-03T17:10:41.455Z</time></trkpt><trkpt lat="40.7025363" lon="17.3393745"><ele>423.0</ele><time>2026-04-03T17:10:43.455Z</time></trkpt><trkpt lat="40.7026226" lon="17.339409"><ele>423.0</ele><time>2026-04-03T17:10:45.455Z</time></trkpt><trkpt lat="40.7026987" lon="17.3394397"><ele>423.0</ele><time>2026-04-03T17:10:47.454Z</time></trkpt><trkpt lat="40.7027764" lon="17.3394721"><ele>423.0</ele><time>2026-04-03T17:10:50.455Z</time></trkpt><trkpt lat="40.7028246" lon="17.3395319"><ele>423.0</ele><time>2026-04-03T17:10:53.454Z</time></trkpt><trkpt lat="40.7027958" lon="17.3396534"><ele>423.0</ele><time>2026-04-03T17:10:56.454Z</time></trkpt><trkpt lat="40.7027472" lon="17.3397929"><ele>423.0</ele><time>2026-04-03T17:10:58.452Z</time></trkpt><trkpt lat="40.7027008" lon="17.3399447"><ele>423.59999999999997</ele><time>2026-04-03T17:11:00.453Z</time></trkpt><trkpt lat="40.7026627" lon="17.3400839"><ele>424.2</ele><time>2026-04-03T17:11:02.453Z</time></trkpt><trkpt lat="40.7026255" lon="17.340212"><ele>424.8</ele><time>2026-04-03T17:11:04.453Z</time></trkpt><trkpt lat="40.7025934" lon="17.3403232"><ele>425.4</ele><time>2026-04-03T17:11:06.453Z</time></trkpt><trkpt lat="40.702557" lon="17.340443"><ele>426.0</ele><time>2026-04-03T17:11:08.453Z</time></trkpt><trkpt lat="40.7025172" lon="17.3405721"><ele>426.1666666666667</ele><time>2026-04-03T17:11:10.454Z</time></trkpt><trkpt lat="40.7024724" lon="17.3407188"><ele>426.33333333333337</ele><time>2026-04-03T17:11:12.454Z</time></trkpt><trkpt lat="40.702445" lon="17.3407967"><ele>426.5</ele><time>2026-04-03T17:11:13.454Z</time></trkpt><trkpt lat="40.7024171" lon="17.3408768"><ele>426.6666666666667</ele><time>2026-04-03T17:11:14.454Z</time></trkpt><trkpt lat="40.7023923" lon="17.3409636"><ele>426.83333333333337</ele><time>2026-04-03T17:11:15.453Z</time></trkpt><trkpt lat="40.7023664" lon="17.3410499"><ele>427.0</ele><time>2026-04-03T17:11:16.453Z</time></trkpt><trkpt lat="40.7023378" lon="17.3411389"><ele>427.0</ele><time>2026-04-03T17:11:17.453Z</time></trkpt><trkpt lat="40.7023152" lon="17.3412219"><ele>427.0</ele><time>2026-04-03T17:11:18.454Z</time></trkpt><trkpt lat="40.7022914" lon="17.3413028"><ele>427.0</ele><time>2026-04-03T17:11:19.453Z</time></trkpt><trkpt lat="40.7022686" lon="17.3413846"><ele>427.0</ele><time>2026-04-03T17:11:20.453Z</time></trkpt><trkpt lat="40.702237" lon="17.3415033"><ele>427.0</ele><time>2026-04-03T17:11:22.453Z</time></trkpt><trkpt lat="40.7022111" lon="17.3415823"><ele>427.0</ele><time>2026-04-03T17:11:25.454Z</time></trkpt><trkpt lat="40.7021789" lon="17.3416854"><ele>427.0</ele><time>2026-04-03T17:11:34.453Z</time></trkpt><trkpt lat="40.702159" lon="17.3417703"><ele>427.6</ele><time>2026-04-03T17:11:36.454Z</time></trkpt><trkpt lat="40.7021358" lon="17.3418672"><ele>428.20000000000005</ele><time>2026-04-03T17:11:38.454Z</time></trkpt><trkpt lat="40.7021048" lon="17.3419795"><ele>428.8</ele><time>2026-04-03T17:11:40.453Z</time></trkpt><trkpt lat="40.7020679" lon="17.3421015"><ele>429.4</ele><time>2026-04-03T17:11:42.453Z</time></trkpt><trkpt lat="40.7020275" lon="17.3422418"><ele>430.0</ele><time>2026-04-03T17:11:44.453Z</time></trkpt><trkpt lat="40.7019917" lon="17.3423796"><ele>430.25</ele><time>2026-04-03T17:11:46.454Z</time></trkpt><trkpt lat="40.701955" lon="17.3425226"><ele>430.5</ele><time>2026-04-03T17:11:48.453Z</time></trkpt><trkpt lat="40.701922" lon="17.3426599"><ele>430.75</ele><time>2026-04-03T17:11:50.453Z</time></trkpt><trkpt lat="40.7018812" lon="17.342806"><ele>431.0</ele><time>2026-04-03T17:11:52.453Z</time></trkpt><trkpt lat="40.701841" lon="17.3429436"><ele>430.99999999999994</ele><time>2026-04-03T17:11:54.453Z</time></trkpt><trkpt lat="40.701794" lon="17.3430688"><ele>431.0</ele><time>2026-04-03T17:11:56.454Z</time></trkpt><trkpt lat="40.7017557" lon="17.3431538"><ele>431.0</ele><time>2026-04-03T17:11:58.454Z</time></trkpt><trkpt lat="40.7017353" lon="17.3432362"><ele>431.0</ele><time>2026-04-03T17:12:04.452Z</time></trkpt><trkpt lat="40.7016998" lon="17.3433234"><ele>430.99999999999994</ele><time>2026-04-03T17:12:07.452Z</time></trkpt><trkpt lat="40.7016528" lon="17.343399"><ele>431.0</ele><time>2026-04-03T17:12:09.453Z</time></trkpt><trkpt lat="40.7016028" lon="17.3435058"><ele>431.0</ele><time>2026-04-03T17:12:11.453Z</time></trkpt><trkpt lat="40.701545" lon="17.3436544"><ele>431.0</ele><time>2026-04-03T17:12:13.454Z</time></trkpt><trkpt lat="40.7014933" lon="17.3437845"><ele>431.0</ele><time>2026-04-03T17:12:15.452Z</time></trkpt><trkpt lat="40.7014546" lon="17.3439003"><ele>431.0</ele><time>2026-04-03T17:12:17.453Z</time></trkpt><trkpt lat="40.7013901" lon="17.344018"><ele>431.0</ele><time>2026-04-03T17:12:19.454Z</time></trkpt><trkpt lat="40.7013437" lon="17.3440916"><ele>430.99999999999994</ele><time>2026-04-03T17:12:20.453Z</time></trkpt><trkpt lat="40.701292" lon="17.3441644"><ele>431.0</ele><time>2026-04-03T17:12:21.452Z</time></trkpt><trkpt lat="40.7012307" lon="17.3442334"><ele>431.0</ele><time>2026-04-03T17:12:22.452Z</time></trkpt><trkpt lat="40.7011721" lon="17.3442942"><ele>431.0</ele><time>2026-04-03T17:12:23.453Z</time></trkpt><trkpt lat="40.7011145" lon="17.3443471"><ele>430.99999999999994</ele><time>2026-04-03T17:12:24.453Z</time></trkpt><trkpt lat="40.7010084" lon="17.34442"><ele>431.0</ele><time>2026-04-03T17:12:26.453Z</time></trkpt><trkpt lat="40.7009008" lon="17.3444533"><ele>428.0</ele><time>2026-04-03T17:12:28.453Z</time></trkpt><trkpt lat="40.700818" lon="17.3444566"><ele>428.0</ele><time>2026-04-03T17:12:30.453Z</time></trkpt><trkpt lat="40.7007456" lon="17.3444471"><ele>428.0</ele><time>2026-04-03T17:12:32.453Z</time></trkpt><trkpt lat="40.7006637" lon="17.3444092"><ele>428.0</ele><time>2026-04-03T17:12:35.453Z</time></trkpt><trkpt lat="40.700605" lon="17.3441486"><ele>428.0</ele><time>2026-04-03T17:12:52.453Z</time></trkpt></trkseg></trk></gpx>